Observation data for South Plains 3ENE on 11/17/2019      Previous  Date       Current Mesonet Observations  Soil Data  Daily Summary Page  Observations in Plain Language
KSP2 170600Z 21006KT 08/03 A2996 RMK A01 T00840034  RH  071%=      5-min Rain = 0
KSP2 170601Z 21006KT 08/03 A2996 RMK A01 T00830034  RH  071%=      5-min Rain = 0
KSP2 170602Z 22006KT 08/03 A2996 RMK A01 T00820034  RH  072%=      5-min Rain = 0
KSP2 170603Z 22005KT 08/03 A2996 RMK A01 T00820034  RH  072%=      5-min Rain = 0
KSP2 170604Z 21006KT 08/03 A2996 RMK A01 T00810034  RH  072%=      5-min Rain = 0
KSP2 170605Z 21006KT 08/03 A2996 RMK A01 T00810034  RH  072%=      5-min Rain = 0
KSP2 170606Z 22006KT 08/04 A2996 RMK A01 T00810035  RH  072%=      5-min Rain = 0
KSP2 170607Z 22006KT 08/04 A2996 RMK A01 T00810035  RH  073%=      5-min Rain = 0
KSP2 170608Z 22006KT 08/03 A2996 RMK A01 T00800034  RH  073%=      5-min Rain = 0
KSP2 170609Z 22006KT 08/03 A2996 RMK A01 T00800034  RH  073%=      5-min Rain = 0
KSP2 170610Z 22007KT 08/03 A2996 RMK A01 T00800034  RH  073%=      5-min Rain = 0
KSP2 170611Z 23006KT 08/03 A2996 RMK A01 T00790034  RH  073%=      5-min Rain = 0
KSP2 170612Z 23006KT 08/04 A2996 RMK A01 T00790035  RH  073%=      5-min Rain = 0
KSP2 170613Z 23006KT 08/03 A2996 RMK A01 T00790034  RH  073%=      5-min Rain = 0
KSP2 170614Z 23006KT 08/03 A2996 RMK A01 T00790034  RH  073%=      5-min Rain = 0
KSP2 170615Z 23005KT 08/03 A2996 RMK A01 T00790034  RH  073%=      5-min Rain = 0
KSP2 170616Z 23006KT 08/03 A2996 RMK A01 T00790034  RH  073%=      5-min Rain = 0
KSP2 170617Z 23006KT 08/04 A2996 RMK A01 T00800035  RH  073%=      5-min Rain = 0
KSP2 170618Z 23005KT 08/03 A2996 RMK A01 T00790034  RH  073%=      5-min Rain = 0
KSP2 170619Z 23005KT 08/03 A2996 RMK A01 T00790034  RH  073%=      5-min Rain = 0
KSP2 170620Z 24006KT 08/03 A2996 RMK A01 T00800034  RH  073%=      5-min Rain = 0
KSP2 170621Z 25006KT 08/03 A2996 RMK A01 T00790034  RH  073%=      5-min Rain = 0
KSP2 170622Z 25007KT 08/03 A2997 RMK A01 T00800034  RH  073%=      5-min Rain = 0
KSP2 170623Z 25007KT 08/03 A2997 RMK A01 T00800034  RH  073%=      5-min Rain = 0
KSP2 170624Z 25007KT 08/03 A2997 RMK A01 T00790034  RH  073%=      5-min Rain = 0
KSP2 170625Z 25007KT 08/03 A2997 RMK A01 T00790034  RH  073%=      5-min Rain = 0
KSP2 170626Z 25006KT 08/03 A2997 RMK A01 T00800034  RH  073%=      5-min Rain = 0
KSP2 170627Z 25007KT 08/03 A2997 RMK A01 T00800034  RH  073%=      5-min Rain = 0
KSP2 170628Z 25007KT 08/03 A2997 RMK A01 T00800034  RH  073%=      5-min Rain = 0
KSP2 170629Z 25007KT 08/03 A2997 RMK A01 T00800034  RH  072%=      5-min Rain = 0
KSP2 170630Z 25007KT 08/03 A2997 RMK A01 T00800034  RH  072%=      5-min Rain = 0
KSP2 170631Z 26007KT 08/03 A2997 RMK A01 T00800033  RH  072%=      5-min Rain = 0
KSP2 170632Z 26006KT 08/03 A2997 RMK A01 T00800033  RH  072%=      5-min Rain = 0
KSP2 170633Z 27005KT 08/03 A2997 RMK A01 T00800033  RH  072%=      5-min Rain = 0
KSP2 170634Z 27005KT 08/03 A2997 RMK A01 T00800033  RH  072%=      5-min Rain = 0
KSP2 170635Z 27005KT 08/03 A2997 RMK A01 T00790033  RH  073%=      5-min Rain = 0
KSP2 170636Z 27005KT 08/03 A2997 RMK A01 T00780033  RH  073%=      5-min Rain = 0
KSP2 170637Z 28005KT 08/03 A2997 RMK A01 T00770033  RH  073%=      5-min Rain = 0
KSP2 170638Z 28005KT 08/03 A2998 RMK A01 T00770033  RH  074%=      5-min Rain = 0
KSP2 170639Z 28006KT 08/03 A2998 RMK A01 T00760032  RH  074%=      5-min Rain = 0
KSP2 170640Z 27006KT 08/03 A2998 RMK A01 T00750032  RH  074%=      5-min Rain = 0
KSP2 170641Z 27006KT 08/03 A2997 RMK A01 T00750032  RH  074%=      5-min Rain = 0
KSP2 170642Z 27006KT 07/03 A2997 RMK A01 T00740032  RH  074%=      5-min Rain = 0
KSP2 170643Z 27007KT 07/03 A2998 RMK A01 T00740032  RH  074%=      5-min Rain = 0
KSP2 170644Z 28007KT 07/03 A2998 RMK A01 T00740032  RH  074%=      5-min Rain = 0
KSP2 170645Z 28007KT 08/03 A2998 RMK A01 T00750032  RH  074%=      5-min Rain = 0
KSP2 170646Z 28006KT 07/03 A2998 RMK A01 T00740031  RH  074%=      5-min Rain = 0
KSP2 170647Z 27006KT 07/03 A2998 RMK A01 T00730031  RH  074%=      5-min Rain = 0
KSP2 170648Z 27006KT 07/03 A2998 RMK A01 T00730030  RH  074%=      5-min Rain = 0
KSP2 170649Z 27006KT 07/03 A2998 RMK A01 T00730030  RH  074%=      5-min Rain = 0
KSP2 170650Z 27006KT 07/03 A2997 RMK A01 T00730030  RH  074%=      5-min Rain = 0
KSP2 170651Z 26006KT 07/03 A2997 RMK A01 T00730030  RH  074%=      5-min Rain = 0
KSP2 170652Z 26006KT 07/03 A2997 RMK A01 T00730030  RH  074%=      5-min Rain = 0
KSP2 170653Z 27007KT 07/03 A2997 RMK A01 T00730030  RH  074%=      5-min Rain = 0
KSP2 170654Z 26006KT 07/03 A2997 RMK A01 T00740031  RH  074%=      5-min Rain = 0
KSP2 170655Z 26007KT 07/03 A2997 RMK A01 T00740031  RH  074%=      5-min Rain = 0
KSP2 170656Z 27006KT 07/03 A2998 RMK A01 T00740031  RH  074%=      5-min Rain = 0
KSP2 170657Z 27006KT 08/03 A2998 RMK A01 T00750031  RH  074%=      5-min Rain = 0
KSP2 170658Z 27006KT 08/03 A2997 RMK A01 T00750031  RH  074%=      5-min Rain = 0
KSP2 170659Z 27006KT 07/03 A2997 RMK A01 T00740031  RH  074%=      5-min Rain = 0
KSP2 170700Z 27006KT 07/03 A2997 RMK A01 T00740031  RH  074%=      5-min Rain = 0
KSP2 170701Z 26006KT 07/03 A2997 RMK A01 T00740031  RH  074%=      5-min Rain = 0
KSP2 170702Z 26006KT 07/03 A2997 RMK A01 T00740031  RH  074%=      5-min Rain = 0
KSP2 170703Z 25006KT 07/03 A2997 RMK A01 T00740031  RH  074%=      5-min Rain = 0
KSP2 170704Z 26005KT 07/03 A2997 RMK A01 T00740031  RH  074%=      5-min Rain = 0
KSP2 170705Z 25005KT 07/03 A2997 RMK A01 T00740031  RH  074%=      5-min Rain = 0
KSP2 170706Z 25006KT 08/03 A2997 RMK A01 T00750031  RH  074%=      5-min Rain = 0
KSP2 170707Z 25005KT 08/03 A2997 RMK A01 T00750031  RH  074%=      5-min Rain = 0
KSP2 170708Z 25005KT 08/03 A2997 RMK A01 T00750031  RH  074%=      5-min Rain = 0
KSP2 170709Z 25006KT 08/03 A2997 RMK A01 T00750032  RH  074%=      5-min Rain = 0
KSP2 170710Z 26006KT 08/03 A2997 RMK A01 T00760032  RH  074%=      5-min Rain = 0
KSP2 170711Z 26006KT 08/03 A2997 RMK A01 T00760032  RH  073%=      5-min Rain = 0
KSP2 170712Z 26006KT 08/03 A2997 RMK A01 T00770031  RH  073%=      5-min Rain = 0
KSP2 170713Z 25005KT 08/03 A2997 RMK A01 T00770032  RH  073%=      5-min Rain = 0
KSP2 170714Z 26006KT 08/03 A2997 RMK A01 T00770032  RH  073%=      5-min Rain = 0
KSP2 170715Z 25006KT 08/03 A2997 RMK A01 T00770031  RH  073%=      5-min Rain = 0
KSP2 170716Z 25006KT 08/03 A2997 RMK A01 T00780031  RH  073%=      5-min Rain = 0
KSP2 170717Z 25006KT 08/03 A2997 RMK A01 T00780032  RH  072%=      5-min Rain = 0
KSP2 170718Z 25006KT 08/03 A2997 RMK A01 T00790032  RH  072%=      5-min Rain = 0
KSP2 170719Z 25006KT 08/03 A2997 RMK A01 T00790032  RH  072%=      5-min Rain = 0
KSP2 170720Z 25006KT 08/03 A2997 RMK A01 T00800032  RH  072%=      5-min Rain = 0
KSP2 170721Z 26006KT 08/03 A2997 RMK A01 T00800032  RH  072%=      5-min Rain = 0
KSP2 170722Z 26006KT 08/03 A2997 RMK A01 T00810033  RH  072%=      5-min Rain = 0
KSP2 170723Z 26006KT 08/03 A2997 RMK A01 T00830034  RH  071%=      5-min Rain = 0
KSP2 170724Z 26006KT 08/03 A2997 RMK A01 T00830034  RH  071%=      5-min Rain = 0
KSP2 170725Z 25006KT 08/03 A2997 RMK A01 T00840034  RH  071%=      5-min Rain = 0
KSP2 170726Z 26006KT 09/03 A2997 RMK A01 T00850034  RH  071%=      5-min Rain = 0
KSP2 170727Z 26005KT 09/03 A2997 RMK A01 T00850034  RH  070%=      5-min Rain = 0
KSP2 170728Z 27005KT 09/03 A2997 RMK A01 T00860034  RH  070%=      5-min Rain = 0
KSP2 170729Z 27005KT 09/03 A2997 RMK A01 T00850034  RH  070%=      5-min Rain = 0
KSP2 170730Z 27006KT 08/03 A2997 RMK A01 T00840034  RH  070%=      5-min Rain = 0
KSP2 170731Z 27005KT 08/03 A2997 RMK A01 T00830033  RH  071%=      5-min Rain = 0
KSP2 170732Z 28005KT 08/03 A2997 RMK A01 T00820033  RH  071%=      5-min Rain = 0
KSP2 170733Z 28005KT 08/03 A2997 RMK A01 T00820033  RH  071%=      5-min Rain = 0
KSP2 170734Z 28005KT 08/03 A2997 RMK A01 T00810032  RH  072%=      5-min Rain = 0
KSP2 170735Z 28005KT 08/03 A2997 RMK A01 T00790031  RH  072%=      5-min Rain = 0
KSP2 170736Z 27005KT 08/03 A2997 RMK A01 T00780030  RH  072%=      5-min Rain = 0
KSP2 170737Z 27005KT 08/03 A2997 RMK A01 T00780030  RH  072%=      5-min Rain = 0
KSP2 170738Z 27005KT 08/03 A2998 RMK A01 T00770030  RH  072%=      5-min Rain = 0
KSP2 170739Z 27006KT 08/03 A2997 RMK A01 T00760028  RH  072%=      5-min Rain = 0
KSP2 170740Z 26006KT 08/03 A2997 RMK A01 T00750028  RH  072%=      5-min Rain = 0
KSP2 170741Z 25005KT 07/03 A2997 RMK A01 T00730027  RH  072%=      5-min Rain = 0
KSP2 170742Z 25005KT 07/03 A2997 RMK A01 T00730027  RH  073%=      5-min Rain = 0
KSP2 170743Z 25005KT 07/03 A2997 RMK A01 T00720027  RH  073%=      5-min Rain = 0
KSP2 170744Z 24005KT 07/03 A2997 RMK A01 T00720027  RH  073%=      5-min Rain = 0
KSP2 170745Z 24005KT 07/03 A2997 RMK A01 T00710028  RH  074%=      5-min Rain = 0
KSP2 170746Z 24005KT 07/03 A2997 RMK A01 T00710027  RH  074%=      5-min Rain = 0
KSP2 170747Z 24005KT 07/03 A2997 RMK A01 T00700027  RH  074%=      5-min Rain = 0
KSP2 170748Z 24006KT 07/03 A2997 RMK A01 T00690027  RH  074%=      5-min Rain = 0
KSP2 170749Z 25006KT 07/03 A2997 RMK A01 T00680026  RH  075%=      5-min Rain = 0
KSP2 170750Z 25007KT 07/03 A2997 RMK A01 T00680026  RH  075%=      5-min Rain = 0
KSP2 170751Z 25006KT 07/03 A2997 RMK A01 T00670025  RH  075%=      5-min Rain = 0
KSP2 170752Z 25006KT 07/03 A2996 RMK A01 T00670025  RH  075%=      5-min Rain = 0
KSP2 170753Z 25006KT 07/03 A2996 RMK A01 T00660025  RH  075%=      5-min Rain = 0
KSP2 170754Z 25006KT 07/02 A2996 RMK A01 T00660024  RH  075%=      5-min Rain = 0
KSP2 170755Z 26007KT 07/02 A2997 RMK A01 T00650024  RH  075%=      5-min Rain = 0
KSP2 170756Z 26008KT 07/02 A2997 RMK A01 T00650024  RH  075%=      5-min Rain = 0
KSP2 170757Z 27007KT 07/02 A2997 RMK A01 T00650024  RH  075%=      5-min Rain = 0
KSP2 170758Z 27007KT 07/02 A2997 RMK A01 T00650024  RH  075%=      5-min Rain = 0
KSP2 170759Z 27007KT 06/02 A2997 RMK A01 T00640023  RH  075%=      5-min Rain = 0
KSP2 170800Z 28007KT 06/02 A2997 RMK A01 T00630023  RH  076%=      5-min Rain = 0
KSP2 170801Z 28008KT 06/02 A2997 RMK A01 T00620023  RH  076%=      5-min Rain = 0
KSP2 170802Z 28008KT 06/02 A2997 RMK A01 T00610023  RH  077%=      5-min Rain = 0
KSP2 170803Z 29008KT 06/02 A2998 RMK A01 T00590022  RH  077%=      5-min Rain = 0
KSP2 170804Z 29008KT 06/02 A2998 RMK A01 T00590022  RH  077%=      5-min Rain = 0
KSP2 170805Z 28008KT 06/02 A2998 RMK A01 T00590022  RH  077%=      5-min Rain = 0
KSP2 170806Z 27008KT 06/02 A2998 RMK A01 T00580021  RH  077%=      5-min Rain = 0
KSP2 170807Z 27008KT 06/02 A2998 RMK A01 T00590021  RH  077%=      5-min Rain = 0
KSP2 170808Z 27008KT 06/02 A2998 RMK A01 T00590022  RH  077%=      5-min Rain = 0
KSP2 170809Z 28007KT 06/02 A2998 RMK A01 T00610022  RH  076%=      5-min Rain = 0
KSP2 170810Z 28007KT 06/02 A2998 RMK A01 T00620023  RH  076%=      5-min Rain = 0
KSP2 170811Z 28007KT 06/02 A2998 RMK A01 T00620022  RH  075%=      5-min Rain = 0
KSP2 170812Z 28007KT 06/02 A2997 RMK A01 T00630022  RH  075%=      5-min Rain = 0
KSP2 170813Z 28007KT 06/02 A2998 RMK A01 T00630022  RH  075%=      5-min Rain = 0
KSP2 170814Z 28007KT 06/02 A2998 RMK A01 T00630022  RH  075%=      5-min Rain = 0
KSP2 170815Z 29006KT 06/02 A2998 RMK A01 T00630022  RH  075%=      5-min Rain = 0
KSP2 170816Z 29006KT 06/02 A2998 RMK A01 T00620021  RH  075%=      5-min Rain = 0
KSP2 170817Z 30007KT 06/02 A2998 RMK A01 T00620022  RH  075%=      5-min Rain = 0
KSP2 170818Z 29008KT 06/02 A2998 RMK A01 T00620021  RH  075%=      5-min Rain = 0
KSP2 170819Z 30007KT 06/02 A2998 RMK A01 T00610021  RH  075%=      5-min Rain = 0
KSP2 170820Z 30008KT 06/02 A2998 RMK A01 T00600021  RH  076%=      5-min Rain = 0
KSP2 170821Z 30007KT 06/02 A2998 RMK A01 T00600020  RH  076%=      5-min Rain = 0
KSP2 170822Z 29007KT 06/02 A2998 RMK A01 T00590020  RH  076%=      5-min Rain = 0
KSP2 170823Z 30007KT 06/02 A2998 RMK A01 T00590020  RH  076%=      5-min Rain = 0
KSP2 170824Z 30006KT 06/02 A2998 RMK A01 T00590019  RH  076%=      5-min Rain = 0
KSP2 170825Z 30006KT 06/02 A2998 RMK A01 T00590019  RH  076%=      5-min Rain = 0
KSP2 170826Z 30006KT 06/02 A2998 RMK A01 T00590019  RH  075%=      5-min Rain = 0
KSP2 170827Z 31006KT 06/02 A2998 RMK A01 T00580018  RH  076%=      5-min Rain = 0
KSP2 170828Z 31006KT 06/02 A2998 RMK A01 T00580018  RH  076%=      5-min Rain = 0
KSP2 170829Z 31005KT 06/02 A2998 RMK A01 T00570018  RH  076%=      5-min Rain = 0
KSP2 170830Z 32005KT 06/02 A2999 RMK A01 T00560017  RH  076%=      5-min Rain = 0
KSP2 170831Z 32004KT 06/02 A2998 RMK A01 T00560017  RH  076%=      5-min Rain = 0
KSP2 170832Z 33004KT 06/02 A2998 RMK A01 T00550017  RH  076%=      5-min Rain = 0
KSP2 170833Z 34003KT 06/02 A2998 RMK A01 T00550017  RH  077%=      5-min Rain = 0
KSP2 170834Z 35004KT 05/02 A2998 RMK A01 T00540016  RH  077%=      5-min Rain = 0
KSP2 170835Z 35004KT 05/02 A2998 RMK A01 T00530016  RH  077%=      5-min Rain = 0
KSP2 170836Z 35004KT 05/02 A2998 RMK A01 T00530016  RH  077%=      5-min Rain = 0
KSP2 170837Z 35004KT 05/02 A2998 RMK A01 T00520016  RH  077%=      5-min Rain = 0
KSP2 170838Z 35004KT 05/02 A2998 RMK A01 T00520015  RH  077%=      5-min Rain = 0
KSP2 170839Z 34004KT 05/02 A2998 RMK A01 T00510015  RH  077%=      5-min Rain = 0
KSP2 170840Z 34005KT 05/02 A2998 RMK A01 T00500015  RH  078%=      5-min Rain = 0
KSP2 170841Z 34004KT 05/02 A2998 RMK A01 T00500015  RH  078%=      5-min Rain = 0
KSP2 170842Z 34004KT 05/01 A2998 RMK A01 T00490014  RH  078%=      5-min Rain = 0
KSP2 170843Z 34005KT 05/01 A2998 RMK A01 T00490014  RH  078%=      5-min Rain = 0
KSP2 170844Z 34005KT 05/01 A2998 RMK A01 T00480014  RH  078%=      5-min Rain = 0
KSP2 170845Z 34005KT 05/01 A2998 RMK A01 T00480014  RH  079%=      5-min Rain = 0
KSP2 170846Z 34005KT 05/01 A2998 RMK A01 T00480014  RH  079%=      5-min Rain = 0
KSP2 170847Z 34005KT 05/01 A2998 RMK A01 T00470013  RH  079%=      5-min Rain = 0
KSP2 170848Z 34005KT 05/01 A2999 RMK A01 T00470014  RH  079%=      5-min Rain = 0
KSP2 170849Z 34006KT 05/01 A2999 RMK A01 T00470013  RH  079%=      5-min Rain = 0
KSP2 170850Z 34006KT 05/01 A2999 RMK A01 T00460013  RH  079%=      5-min Rain = 0
KSP2 170851Z 34007KT 05/01 A2999 RMK A01 T00460014  RH  079%=      5-min Rain = 0
KSP2 170852Z 34007KT 05/01 A2999 RMK A01 T00460013  RH  079%=      5-min Rain = 0
KSP2 170853Z 34007KT 05/01 A2999 RMK A01 T00470014  RH  079%=      5-min Rain = 0
KSP2 170854Z 34006KT 05/02 A2999 RMK A01 T00490015  RH  079%=      5-min Rain = 0
KSP2 170855Z 35008KT 05/02 A2999 RMK A01 T00500016  RH  078%=      5-min Rain = 0
KSP2 170856Z 34008G13KT 05/02 A2999 RMK A01 T00540018  RH  078%=      5-min Rain = 0
KSP2 170857Z 35008KT 06/02 A2999 RMK A01 T00590020  RH  076%=      5-min Rain = 0
KSP2 170858Z 35009KT 07/02 A2999 RMK A01 T00650021  RH  074%=      5-min Rain = 0
KSP2 170859Z 35010KT 07/02 A2999 RMK A01 T00690022  RH  072%=      5-min Rain = 0
KSP2 170900Z 35010KT 07/02 A2999 RMK A01 T00730022  RH  070%=      5-min Rain = 0
KSP2 170901Z 35009KT 08/02 A2999 RMK A01 T00760022  RH  069%=      5-min Rain = 0
KSP2 170902Z 35009KT 08/02 A2999 RMK A01 T00770021  RH  068%=      5-min Rain = 0
KSP2 170903Z 36010KT 08/02 A2999 RMK A01 T00780022  RH  068%=      5-min Rain = 0
KSP2 170904Z 01010KT 08/02 A2999 RMK A01 T00780022  RH  067%=      5-min Rain = 0
KSP2 170905Z 00012KT 08/02 A2999 RMK A01 T00790021  RH  067%=      5-min Rain = 0
KSP2 170906Z 00012KT 08/02 A2999 RMK A01 T00810022  RH  066%=      5-min Rain = 0
KSP2 170907Z 00013KT 08/02 A2999 RMK A01 T00820022  RH  066%=      5-min Rain = 0
KSP2 170908Z 01013KT 08/02 A2999 RMK A01 T00840022  RH  065%=      5-min Rain = 0
KSP2 170909Z 01012KT 09/02 A2999 RMK A01 T00850023  RH  065%=      5-min Rain = 0
KSP2 170910Z 00014G19KT 09/02 A2999 RMK A01 T00850023  RH  065%=      5-min Rain = 0
KSP2 170911Z 00017KT 09/02 A2999 RMK A01 T00860023  RH  065%=      5-min Rain = 0
KSP2 170912Z 00018KT 09/02 A2999 RMK A01 T00880023  RH  064%=      5-min Rain = 0
KSP2 170913Z 00016KT 09/02 A2999 RMK A01 T00890023  RH  063%=      5-min Rain = 0
KSP2 170914Z 01016KT 09/02 A2999 RMK A01 T00900023  RH  063%=      5-min Rain = 0
KSP2 170915Z 00015KT 09/02 A2999 RMK A01 T00900022  RH  062%=      5-min Rain = 0
KSP2 170916Z 01019KT 09/02 A2999 RMK A01 T00900021  RH  062%=      5-min Rain = 0
KSP2 170917Z 01016KT 09/02 A2999 RMK A01 T00910020  RH  061%=      5-min Rain = 0
KSP2 170918Z 01016G23KT 09/02 A2999 RMK A01 T00920019  RH  060%=      5-min Rain = 0
KSP2 170919Z 01017KT 09/02 A2999 RMK A01 T00930018  RH  059%=      5-min Rain = 0
KSP2 170920Z 01018KT 09/02 A2999 RMK A01 T00940016  RH  058%=      5-min Rain = 0
KSP2 170921Z 01022G27KT 10/01 A2999 RMK A01 T00950013  RH  057%=      5-min Rain = 0
KSP2 170922Z 01022KT 10/01 A2999 RMK A01 T00960010  RH  055%=      5-min Rain = 0
KSP2 170923Z 01022KT 10/01 A2999 RMK A01 T00970007  RH  053%=      5-min Rain = 0
KSP2 170924Z 01021G26KT 10/01 A30 RMK A01 T00990005  RH  052%=      5-min Rain = 0
KSP2 170925Z 01024KT 10/00 A30 RMK A01 T00990003  RH  051%=      5-min Rain = 0
KSP2 170926Z 01023KT 10/00 A30 RMK A01 T01000002  RH  051%=      5-min Rain = 0
KSP2 170927Z 01025G30KT 10/00 A30 RMK A01 T01000001  RH  050%=      5-min Rain = 0
KSP2 170928Z 01023KT 10/00 A30 RMK A01 T010000-0  RH  050%=      5-min Rain = 0
KSP2 170929Z 01023KT 10/00 A30 RMK A01 T010100-0  RH  050%=      5-min Rain = 0
KSP2 170930Z 01023G30KT 10/00 A30 RMK A01 T01000000  RH  050%=      5-min Rain = 0
KSP2 170931Z 01024G31KT 10/00 A30 RMK A01 T01000000  RH  050%=      5-min Rain = 0
KSP2 170932Z 01021KT 10/00 A30 RMK A01 T01000000  RH  050%=      5-min Rain = 0
KSP2 170933Z 01020G25KT 10/00 A30 RMK A01 T00980000  RH  050%=      5-min Rain = 0
KSP2 170934Z 01021G27KT 10/00 A30 RMK A01 T009700-0  RH  051%=      5-min Rain = 0
KSP2 170935Z 01022G28KT 10/00 A30 RMK A01 T009700-0  RH  051%=      5-min Rain = 0
KSP2 170936Z 01019KT 10/00 A3001 RMK A01 T009700-0  RH  051%=      5-min Rain = 0
KSP2 170937Z 01018KT 10/00 A3001 RMK A01 T009600-0  RH  051%=      5-min Rain = 0
KSP2 170938Z 01022KT 10/M00 A3001 RMK A01 T00951001  RH  051%=      5-min Rain = 0
KSP2 170939Z 01020G26KT 10/M00 A3001 RMK A01 T00951001  RH  051%=      5-min Rain = 0
KSP2 170940Z 01022G28KT 10/M00 A3001 RMK A01 T00951001  RH  051%=      5-min Rain = 0
KSP2 170941Z 01021G26KT 10/M00 A3001 RMK A01 T00951002  RH  051%=      5-min Rain = 0
KSP2 170942Z 01020KT 10/M00 A3001 RMK A01 T00951001  RH  051%=      5-min Rain = 0
KSP2 170943Z 01021G26KT 10/M00 A3001 RMK A01 T00951002  RH  051%=      5-min Rain = 0
KSP2 170944Z 01019G25KT 09/M00 A3001 RMK A01 T00941002  RH  051%=      5-min Rain = 0
KSP2 170945Z 01020G26KT 09/M00 A3001 RMK A01 T00941002  RH  051%=      5-min Rain = 0
KSP2 170946Z 01020G28KT 09/M00 A3001 RMK A01 T00941002  RH  051%=      5-min Rain = 0
KSP2 170947Z 01021G28KT 09/M00 A3002 RMK A01 T00941003  RH  051%=      5-min Rain = 0
KSP2 170948Z 00022KT 09/M00 A3002 RMK A01 T00941003  RH  051%=      5-min Rain = 0
KSP2 170949Z 00021KT 09/M00 A3002 RMK A01 T00941003  RH  051%=      5-min Rain = 0
KSP2 170950Z 01021G26KT 09/M00 A3002 RMK A01 T00941003  RH  051%=      5-min Rain = 0
KSP2 170951Z 01019G24KT 09/M00 A3002 RMK A01 T00941003  RH  051%=      5-min Rain = 0
KSP2 170952Z 01017KT 09/M00 A3002 RMK A01 T00931003  RH  051%=      5-min Rain = 0
KSP2 170953Z 01016KT 09/M00 A3002 RMK A01 T00931004  RH  051%=      5-min Rain = 0
KSP2 170954Z 01014KT 09/M00 A3002 RMK A01 T00921004  RH  051%=      5-min Rain = 0
KSP2 170955Z 01015G20KT 09/M00 A3002 RMK A01 T00911004  RH  051%=      5-min Rain = 0
KSP2 170956Z 00020G26KT 09/M00 A3002 RMK A01 T00901004  RH  051%=      5-min Rain = 0
KSP2 170957Z 00020G25KT 09/M00 A3003 RMK A01 T00921004  RH  051%=      5-min Rain = 0
KSP2 170958Z 01021G26KT 09/M01 A3003 RMK A01 T00921005  RH  051%=      5-min Rain = 0
KSP2 170959Z 00017KT 09/M00 A3003 RMK A01 T00931004  RH  050%=      5-min Rain = 0
KSP2 171000Z 00019KT 09/M01 A3003 RMK A01 T00931005  RH  050%=      5-min Rain = 0
KSP2 171001Z 01020KT 09/M01 A3003 RMK A01 T00931005  RH  050%=      5-min Rain = 0
KSP2 171002Z 01017KT 09/M01 A3003 RMK A01 T00931005  RH  050%=      5-min Rain = 0
KSP2 171003Z 00015KT 09/M01 A3003 RMK A01 T00931005  RH  050%=      5-min Rain = 0
KSP2 171004Z 01015KT 09/M01 A3003 RMK A01 T00931005  RH  050%=      5-min Rain = 0
KSP2 171005Z 01017KT 09/M01 A3003 RMK A01 T00921005  RH  051%=      5-min Rain = 0
KSP2 171006Z 00017G23KT 09/M01 A3003 RMK A01 T00911005  RH  051%=      5-min Rain = 0
KSP2 171007Z 01018KT 09/M01 A3003 RMK A01 T00911005  RH  051%=      5-min Rain = 0
KSP2 171008Z 36018KT 09/M01 A3003 RMK A01 T00921005  RH  051%=      5-min Rain = 0
KSP2 171009Z 00014KT 09/M01 A3003 RMK A01 T00931005  RH  050%=      5-min Rain = 0
KSP2 171010Z 01017KT 09/M01 A3003 RMK A01 T00921005  RH  051%=      5-min Rain = 0
KSP2 171011Z 36017G24KT 09/M01 A3003 RMK A01 T00901006  RH  051%=      5-min Rain = 0
KSP2 171012Z 00016KT 09/M01 A3004 RMK A01 T00901006  RH  051%=      5-min Rain = 0
KSP2 171013Z 00017G24KT 09/M01 A3004 RMK A01 T00901006  RH  051%=      5-min Rain = 0
KSP2 171014Z 00020KT 09/M01 A3004 RMK A01 T00901006  RH  051%=      5-min Rain = 0
KSP2 171015Z 00023KT 09/M01 A3004 RMK A01 T00911005  RH  051%=      5-min Rain = 0
KSP2 171016Z 01019KT 09/M01 A3004 RMK A01 T00921005  RH  051%=      5-min Rain = 0
KSP2 171017Z 01017KT 09/M01 A3004 RMK A01 T00921005  RH  051%=      5-min Rain = 0
KSP2 171018Z 01019KT 09/M01 A3004 RMK A01 T00921005  RH  051%=      5-min Rain = 0
KSP2 171019Z 01017KT 09/M01 A3004 RMK A01 T00911006  RH  051%=      5-min Rain = 0
KSP2 171020Z 01021KT 09/M01 A3003 RMK A01 T00911006  RH  051%=      5-min Rain = 0
KSP2 171021Z 01019G26KT 09/M01 A3004 RMK A01 T00921006  RH  051%=      5-min Rain = 0
KSP2 171022Z 01018KT 09/M01 A3004 RMK A01 T00921006  RH  051%=      5-min Rain = 0
KSP2 171023Z 01020G25KT 09/M01 A3004 RMK A01 T00911006  RH  051%=      5-min Rain = 0
KSP2 171024Z 01020KT 09/M01 A3004 RMK A01 T00911006  RH  051%=      5-min Rain = 0
KSP2 171025Z 01021G26KT 09/M01 A3003 RMK A01 T00911005  RH  051%=      5-min Rain = 0
KSP2 171026Z 01020KT 09/M01 A3003 RMK A01 T00911006  RH  051%=      5-min Rain = 0
KSP2 171027Z 01017G22KT 09/M01 A3003 RMK A01 T00921005  RH  051%=      5-min Rain = 0
KSP2 171028Z 01017KT 09/M01 A3004 RMK A01 T00911005  RH  051%=      5-min Rain = 0
KSP2 171029Z 01018G24KT 09/M01 A3004 RMK A01 T00901006  RH  051%=      5-min Rain = 0
KSP2 171030Z 01023KT 09/M01 A3004 RMK A01 T00891005  RH  051%=      5-min Rain = 0
KSP2 171031Z 01018KT 09/M01 A3004 RMK A01 T00901005  RH  051%=      5-min Rain = 0
KSP2 171032Z 01018KT 09/M01 A3004 RMK A01 T00901005  RH  051%=      5-min Rain = 0
KSP2 171033Z 01016KT 09/M01 A3004 RMK A01 T00891005  RH  052%=      5-min Rain = 0
KSP2 171034Z 02016KT 09/M01 A3004 RMK A01 T00881005  RH  052%=      5-min Rain = 0
KSP2 171035Z 01014KT 09/M01 A3004 RMK A01 T00881005  RH  052%=      5-min Rain = 0
KSP2 171036Z 01016KT 09/M01 A3004 RMK A01 T00881005  RH  052%=      5-min Rain = 0
KSP2 171037Z 01017KT 09/M01 A3004 RMK A01 T00881005  RH  052%=      5-min Rain = 0
KSP2 171038Z 01016KT 09/M01 A3004 RMK A01 T00881005  RH  052%=      5-min Rain = 0
KSP2 171039Z 01014G19KT 09/M01 A3004 RMK A01 T00871005  RH  052%=      5-min Rain = 0
KSP2 171040Z 01016KT 09/M01 A3004 RMK A01 T00861005  RH  053%=      5-min Rain = 0
KSP2 171041Z 01016KT 09/M01 A3004 RMK A01 T00861005  RH  053%=      5-min Rain = 0
KSP2 171042Z 01018KT 09/M01 A3005 RMK A01 T00861005  RH  053%=      5-min Rain = 0
KSP2 171043Z 01020KT 09/M00 A3005 RMK A01 T00861004  RH  053%=      5-min Rain = 0
KSP2 171044Z 00020KT 09/M00 A3005 RMK A01 T00861004  RH  053%=      5-min Rain = 0
KSP2 171045Z 00017KT 09/M00 A3005 RMK A01 T00871004  RH  053%=      5-min Rain = 0
KSP2 171046Z 01017KT 09/M00 A3005 RMK A01 T00871004  RH  053%=      5-min Rain = 0
KSP2 171047Z 01019KT 09/M00 A3005 RMK A01 T00861004  RH  053%=      5-min Rain = 0
KSP2 171048Z 00018KT 09/M00 A3005 RMK A01 T00861004  RH  053%=      5-min Rain = 0
KSP2 171049Z 01017KT 09/M00 A3006 RMK A01 T00861004  RH  053%=      5-min Rain = 0
KSP2 171050Z 01020KT 09/M00 A3006 RMK A01 T00851003  RH  054%=      5-min Rain = 0
KSP2 171051Z 01019KT 09/M00 A3006 RMK A01 T00851003  RH  054%=      5-min Rain = 0
KSP2 171052Z 01018G23KT 09/M00 A3006 RMK A01 T00851003  RH  054%=      5-min Rain = 0
KSP2 171053Z 01018KT 08/M00 A3005 RMK A01 T00841003  RH  054%=      5-min Rain = 0
KSP2 171054Z 01016G21KT 08/M00 A3005 RMK A01 T00841003  RH  054%=      5-min Rain = 0
KSP2 171055Z 01017G22KT 08/M00 A3006 RMK A01 T00831003  RH  054%=      5-min Rain = 0
KSP2 171056Z 01016G21KT 08/M00 A3006 RMK A01 T00831003  RH  055%=      5-min Rain = 0
KSP2 171057Z 01018KT 08/M00 A3006 RMK A01 T00831003  RH  055%=      5-min Rain = 0
KSP2 171058Z 01018KT 08/M00 A3006 RMK A01 T00831003  RH  055%=      5-min Rain = 0
KSP2 171059Z 01017KT 08/M00 A3006 RMK A01 T00831003  RH  055%=      5-min Rain = 0
KSP2 171100Z 02017KT 08/M00 A3006 RMK A01 T00831003  RH  055%=      5-min Rain = 0
KSP2 171101Z 01018KT 08/M00 A3006 RMK A01 T00831002  RH  055%=      5-min Rain = 0
KSP2 171102Z 01017KT 08/M00 A3006 RMK A01 T00831003  RH  055%=      5-min Rain = 0
KSP2 171103Z 01015KT 08/M00 A3006 RMK A01 T00831002  RH  055%=      5-min Rain = 0
KSP2 171104Z 01015KT 08/M00 A3006 RMK A01 T00821003  RH  055%=      5-min Rain = 0
KSP2 171105Z 01017KT 08/M00 A3006 RMK A01 T00811003  RH  055%=      5-min Rain = 0
KSP2 171106Z 01019G24KT 08/M00 A3006 RMK A01 T00821002  RH  055%=      5-min Rain = 0
KSP2 171107Z 01021KT 08/M00 A3006 RMK A01 T00831002  RH  055%=      5-min Rain = 0
KSP2 171108Z 01016KT 09/M00 A3006 RMK A01 T00851002  RH  055%=      5-min Rain = 0
KSP2 171109Z 01016KT 08/M00 A3006 RMK A01 T00841002  RH  055%=      5-min Rain = 0
KSP2 171110Z 01017G22KT 08/M00 A3006 RMK A01 T00831002  RH  055%=      5-min Rain = 0
KSP2 171111Z 01018KT 08/M00 A3006 RMK A01 T00831002  RH  055%=      5-min Rain = 0
KSP2 171112Z 01015KT 08/M00 A3006 RMK A01 T00831002  RH  055%=      5-min Rain = 0
KSP2 171113Z 01013G19KT 08/M00 A3006 RMK A01 T00821002  RH  055%=      5-min Rain = 0
KSP2 171114Z 01016G21KT 08/M00 A3006 RMK A01 T00811002  RH  055%=      5-min Rain = 0
KSP2 171115Z 01020KT 08/M00 A3007 RMK A01 T00821002  RH  056%=      5-min Rain = 0
KSP2 171116Z 01015KT 08/M00 A3007 RMK A01 T00821002  RH  055%=      5-min Rain = 0
KSP2 171117Z 01015KT 08/M00 A3007 RMK A01 T00821002  RH  055%=      5-min Rain = 0
KSP2 171118Z 01015KT 08/M00 A3007 RMK A01 T00811002  RH  056%=      5-min Rain = 0
KSP2 171119Z 01016G21KT 08/M00 A3007 RMK A01 T00811002  RH  056%=      5-min Rain = 0
KSP2 171120Z 01018KT 08/M00 A3007 RMK A01 T00801002  RH  056%=      5-min Rain = 0
KSP2 171121Z 01018KT 08/M00 A3007 RMK A01 T00801002  RH  056%=      5-min Rain = 0
KSP2 171122Z 01016KT 08/M00 A3007 RMK A01 T00811001  RH  056%=      5-min Rain = 0
KSP2 171123Z 01017KT 08/M00 A3007 RMK A01 T00811001  RH  056%=      5-min Rain = 0
KSP2 171124Z 01014KT 08/M00 A3007 RMK A01 T00811001  RH  056%=      5-min Rain = 0
KSP2 171125Z 01015KT 08/M00 A3007 RMK A01 T00801001  RH  056%=      5-min Rain = 0
KSP2 171126Z 01015KT 08/M00 A3007 RMK A01 T00791002  RH  057%=      5-min Rain = 0
KSP2 171127Z 00014KT 08/M00 A3008 RMK A01 T00781002  RH  057%=      5-min Rain = 0
KSP2 171128Z 01017KT 08/M00 A3008 RMK A01 T00781002  RH  057%=      5-min Rain = 0
KSP2 171129Z 01013KT 08/M00 A3008 RMK A01 T00781001  RH  057%=      5-min Rain = 0
KSP2 171130Z 01015KT 08/M00 A3008 RMK A01 T00771002  RH  057%=      5-min Rain = 0
KSP2 171131Z 01014KT 08/M00 A3008 RMK A01 T00771002  RH  058%=      5-min Rain = 0
KSP2 171132Z 00014KT 08/M00 A3008 RMK A01 T00761002  RH  058%=      5-min Rain = 0
KSP2 171133Z 01017KT 08/M00 A3008 RMK A01 T00761001  RH  058%=      5-min Rain = 0
KSP2 171134Z 01014KT 08/M00 A3008 RMK A01 T00761001  RH  058%=      5-min Rain = 0
KSP2 171135Z 01014KT 08/M00 A3008 RMK A01 T00761001  RH  058%=      5-min Rain = 0
KSP2 171136Z 00015KT 08/M00 A3008 RMK A01 T00751001  RH  058%=      5-min Rain = 0
KSP2 171137Z 01014KT 07/M00 A3008 RMK A01 T00741001  RH  059%=      5-min Rain = 0
KSP2 171138Z 01013KT 07/M00 A3008 RMK A01 T00741001  RH  059%=      5-min Rain = 0
KSP2 171139Z 01014KT 07/M00 A3008 RMK A01 T00741001  RH  059%=      5-min Rain = 0
KSP2 171140Z 01017KT 07/M00 A3008 RMK A01 T00741001  RH  059%=      5-min Rain = 0
KSP2 171141Z 01015KT 07/M00 A3008 RMK A01 T00741001  RH  059%=      5-min Rain = 0
KSP2 171142Z 01015KT 07/M00 A3008 RMK A01 T00741001  RH  059%=      5-min Rain = 0
KSP2 171143Z 00016KT 07/M00 A3009 RMK A01 T00741001  RH  059%=      5-min Rain = 0
KSP2 171144Z 00016KT 07/00 A3008 RMK A01 T007400-0  RH  059%=      5-min Rain = 0
KSP2 171145Z 01017G22KT 07/00 A3009 RMK A01 T007400-0  RH  059%=      5-min Rain = 0
KSP2 171146Z 01014KT 07/00 A3009 RMK A01 T00740000  RH  059%=      5-min Rain = 0
KSP2 171147Z 01015G21KT 07/00 A3009 RMK A01 T007300-0  RH  060%=      5-min Rain = 0
KSP2 171148Z 01015G20KT 07/00 A3009 RMK A01 T00730000  RH  060%=      5-min Rain = 0
KSP2 171149Z 00017G23KT 07/00 A3009 RMK A01 T00730000  RH  060%=      5-min Rain = 0
KSP2 171150Z 01020KT 07/00 A3009 RMK A01 T00730001  RH  060%=      5-min Rain = 0
KSP2 171151Z 00016KT 07/00 A3009 RMK A01 T00730001  RH  060%=      5-min Rain = 0
KSP2 171152Z 36015KT 07/00 A3009 RMK A01 T00730001  RH  060%=      5-min Rain = 0
KSP2 171153Z 01017KT 07/00 A3009 RMK A01 T00730001  RH  060%=      5-min Rain = 0
KSP2 171154Z 01016G21KT 07/00 A3009 RMK A01 T00720001  RH  061%=      5-min Rain = 0
KSP2 171155Z 00016KT 07/00 A3009 RMK A01 T00720002  RH  061%=      5-min Rain = 0
KSP2 171156Z 01014KT 07/00 A3009 RMK A01 T00720002  RH  061%=      5-min Rain = 0
KSP2 171157Z 01018G25KT 07/00 A3009 RMK A01 T00720001  RH  061%=      5-min Rain = 0
KSP2 171158Z 01017KT 07/00 A3009 RMK A01 T00720002  RH  061%=      5-min Rain = 0
KSP2 171159Z 00016G23KT 07/00 A3009 RMK A01 T00730002  RH  061%=      5-min Rain = 0
KSP2 171200Z 01018KT 07/00 A301 RMK A01 T00730002  RH  061%=      5-min Rain = 0
KSP2 171201Z 01016KT 07/00 A301 RMK A01 T00720002  RH  061%=      5-min Rain = 0
KSP2 171202Z 01017KT 07/00 A301 RMK A01 T00720003  RH  061%=      5-min Rain = 0
KSP2 171203Z 01016KT 07/00 A301 RMK A01 T00720003  RH  061%=      5-min Rain = 0
KSP2 171204Z 01017G22KT 07/00 A301 RMK A01 T00720003  RH  062%=      5-min Rain = 0
KSP2 171205Z 01017KT 07/00 A301 RMK A01 T00710003  RH  062%=      5-min Rain = 0
KSP2 171206Z 01015G20KT 07/00 A301 RMK A01 T00710003  RH  062%=      5-min Rain = 0
KSP2 171207Z 01018KT 07/00 A301 RMK A01 T00710003  RH  062%=      5-min Rain = 0
KSP2 171208Z 01016KT 07/00 A301 RMK A01 T00710003  RH  062%=      5-min Rain = 0
KSP2 171209Z 01017KT 07/00 A301 RMK A01 T00710004  RH  062%=      5-min Rain = 0
KSP2 171210Z 01020KT 07/00 A301 RMK A01 T00710004  RH  062%=      5-min Rain = 0
KSP2 171211Z 01017G22KT 07/00 A301 RMK A01 T00720004  RH  062%=      5-min Rain = 0
KSP2 171212Z 01018KT 07/00 A301 RMK A01 T00720004  RH  062%=      5-min Rain = 0
KSP2 171213Z 01016KT 07/00 A301 RMK A01 T00720004  RH  062%=      5-min Rain = 0
KSP2 171214Z 01016KT 07/00 A3011 RMK A01 T00720004  RH  062%=      5-min Rain = 0
KSP2 171215Z 01015KT 07/00 A3011 RMK A01 T00710004  RH  062%=      5-min Rain = 0
KSP2 171216Z 01016KT 07/00 A3011 RMK A01 T00700004  RH  063%=      5-min Rain = 0
KSP2 171217Z 01016KT 07/00 A3011 RMK A01 T00700004  RH  063%=      5-min Rain = 0
KSP2 171218Z 01014KT 07/00 A3011 RMK A01 T00700004  RH  063%=      5-min Rain = 0
KSP2 171219Z 01017KT 07/01 A3011 RMK A01 T00690005  RH  063%=      5-min Rain = 0
KSP2 171220Z 01015KT 07/01 A3011 RMK A01 T00690005  RH  064%=      5-min Rain = 0
KSP2 171221Z 00016KT 07/00 A3011 RMK A01 T00690004  RH  064%=      5-min Rain = 0
KSP2 171222Z 01016G22KT 07/01 A3011 RMK A01 T00690005  RH  064%=      5-min Rain = 0
KSP2 171223Z 01016G22KT 07/01 A3011 RMK A01 T00690005  RH  064%=      5-min Rain = 0
KSP2 171224Z 00016KT 07/01 A3011 RMK A01 T00690005  RH  064%=      5-min Rain = 0
KSP2 171225Z 01016G21KT 07/01 A3012 RMK A01 T00690005  RH  064%=      5-min Rain = 0
KSP2 171226Z 01018KT 07/01 A3012 RMK A01 T00690005  RH  064%=      5-min Rain = 0
KSP2 171227Z 01018KT 07/01 A3012 RMK A01 T00700006  RH  064%=      5-min Rain = 0
KSP2 171228Z 01016KT 07/01 A3012 RMK A01 T00690006  RH  064%=      5-min Rain = 0
KSP2 171229Z 01018KT 07/01 A3012 RMK A01 T00690006  RH  064%=      5-min Rain = 0
KSP2 171230Z 01017KT 07/01 A3012 RMK A01 T00690006  RH  064%=      5-min Rain = 0
KSP2 171231Z 01017KT 07/01 A3012 RMK A01 T00690006  RH  064%=      5-min Rain = 0
KSP2 171232Z 00017KT 07/01 A3012 RMK A01 T00690006  RH  064%=      5-min Rain = 0
KSP2 171233Z 01019G24KT 07/01 A3012 RMK A01 T00690007  RH  064%=      5-min Rain = 0
KSP2 171234Z 01018KT 07/01 A3012 RMK A01 T00690006  RH  064%=      5-min Rain = 0
KSP2 171235Z 01017KT 07/01 A3012 RMK A01 T00690007  RH  064%=      5-min Rain = 0
KSP2 171236Z 01014KT 07/01 A3012 RMK A01 T00690007  RH  065%=      5-min Rain = 0
KSP2 171237Z 01015KT 07/01 A3012 RMK A01 T00680006  RH  065%=      5-min Rain = 0
KSP2 171238Z 01018KT 07/01 A3012 RMK A01 T00680007  RH  065%=      5-min Rain = 0
KSP2 171239Z 01016KT 07/01 A3012 RMK A01 T00680007  RH  065%=      5-min Rain = 0
KSP2 171240Z 00018G23KT 07/01 A3012 RMK A01 T00680007  RH  065%=      5-min Rain = 0
KSP2 171241Z 01021G26KT 07/01 A3012 RMK A01 T00680007  RH  065%=      5-min Rain = 0
KSP2 171242Z 01018KT 07/01 A3012 RMK A01 T00690008  RH  065%=      5-min Rain = 0
KSP2 171243Z 01017KT 07/01 A3012 RMK A01 T00690008  RH  065%=      5-min Rain = 0
KSP2 171244Z 01018KT 07/01 A3012 RMK A01 T00690008  RH  065%=      5-min Rain = 0
KSP2 171245Z 01016KT 07/01 A3012 RMK A01 T00690008  RH  065%=      5-min Rain = 0
KSP2 171246Z 01017KT 07/01 A3012 RMK A01 T00680008  RH  065%=      5-min Rain = 0
KSP2 171247Z 01019KT 07/01 A3012 RMK A01 T00680008  RH  066%=      5-min Rain = 0
KSP2 171248Z 01018KT 07/01 A3012 RMK A01 T00680008  RH  066%=      5-min Rain = 0
KSP2 171249Z 01017KT 07/01 A3013 RMK A01 T00680008  RH  066%=      5-min Rain = 0
KSP2 171250Z 01018G24KT 07/01 A3013 RMK A01 T00680009  RH  066%=      5-min Rain = 0
KSP2 171251Z 01021KT 07/01 A3013 RMK A01 T00680009  RH  066%=      5-min Rain = 0
KSP2 171252Z 01019KT 07/01 A3013 RMK A01 T00690009  RH  066%=      5-min Rain = 0
KSP2 171253Z 01020KT 07/01 A3013 RMK A01 T00690009  RH  065%=      5-min Rain = 0
KSP2 171254Z 01019G27KT 07/01 A3013 RMK A01 T00690009  RH  065%=      5-min Rain = 0
KSP2 171255Z 01019KT 07/01 A3013 RMK A01 T00690009  RH  066%=      5-min Rain = 0
KSP2 171256Z 01020G25KT 07/01 A3013 RMK A01 T00690009  RH  066%=      5-min Rain = 0
KSP2 171257Z 01018KT 07/01 A3013 RMK A01 T00690009  RH  066%=      5-min Rain = 0
KSP2 171258Z 01018KT 07/01 A3013 RMK A01 T00690009  RH  066%=      5-min Rain = 0
KSP2 171259Z 01017KT 07/01 A3013 RMK A01 T00690009  RH  066%=      5-min Rain = 0
KSP2 171300Z 01019KT 07/01 A3013 RMK A01 T00680009  RH  066%=      5-min Rain = 0
KSP2 171301Z 01017KT 07/01 A3013 RMK A01 T00690010  RH  066%=      5-min Rain = 0
KSP2 171302Z 01015G22KT 07/01 A3013 RMK A01 T00680009  RH  066%=      5-min Rain = 0
KSP2 171303Z 01020KT 07/01 A3013 RMK A01 T00670009  RH  066%=      5-min Rain = 0
KSP2 171304Z 01017G22KT 07/01 A3013 RMK A01 T00670009  RH  066%=      5-min Rain = 0
KSP2 171305Z 01019KT 07/01 A3013 RMK A01 T00680010  RH  066%=      5-min Rain = 0
KSP2 171306Z 01016KT 07/01 A3013 RMK A01 T00680010  RH  066%=      5-min Rain = 0
KSP2 171307Z 01015KT 07/01 A3014 RMK A01 T00680010  RH  066%=      5-min Rain = 0
KSP2 171308Z 01017KT 07/01 A3014 RMK A01 T00670009  RH  067%=      5-min Rain = 0
KSP2 171309Z 01015KT 07/01 A3014 RMK A01 T00670010  RH  067%=      5-min Rain = 0
KSP2 171310Z 01018KT 07/01 A3014 RMK A01 T00660009  RH  067%=      5-min Rain = 0
KSP2 171311Z 01015KT 07/01 A3014 RMK A01 T00660010  RH  067%=      5-min Rain = 0
KSP2 171312Z 01016KT 07/01 A3014 RMK A01 T00660009  RH  067%=      5-min Rain = 0
KSP2 171313Z 01015KT 07/01 A3014 RMK A01 T00660010  RH  067%=      5-min Rain = 0
KSP2 171314Z 01014KT 07/01 A3014 RMK A01 T00660010  RH  067%=      5-min Rain = 0
KSP2 171315Z 01015KT 07/01 A3014 RMK A01 T00650010  RH  068%=      5-min Rain = 0
KSP2 171316Z 01015KT 07/01 A3014 RMK A01 T00650010  RH  068%=      5-min Rain = 0
KSP2 171317Z 01016KT 07/01 A3014 RMK A01 T00650010  RH  068%=      5-min Rain = 0
KSP2 171318Z 01017KT 07/01 A3014 RMK A01 T00650010  RH  068%=      5-min Rain = 0
KSP2 171319Z 01015KT 07/01 A3014 RMK A01 T00650010  RH  068%=      5-min Rain = 0
KSP2 171320Z 01015KT 07/01 A3014 RMK A01 T00650010  RH  068%=      5-min Rain = 0
KSP2 171321Z 01014KT 07/01 A3015 RMK A01 T00650010  RH  068%=      5-min Rain = 0
KSP2 171322Z 01016G22KT 07/01 A3015 RMK A01 T00650010  RH  068%=      5-min Rain = 0
KSP2 171323Z 01014G20KT 07/01 A3015 RMK A01 T00650010  RH  068%=      5-min Rain = 0
KSP2 171324Z 01014KT 07/01 A3015 RMK A01 T00650010  RH  068%=      5-min Rain = 0
KSP2 171325Z 01015KT 07/01 A3015 RMK A01 T00650010  RH  068%=      5-min Rain = 0
KSP2 171326Z 01014KT 07/01 A3015 RMK A01 T00650010  RH  068%=      5-min Rain = 0
KSP2 171327Z 01014KT 06/01 A3015 RMK A01 T00640010  RH  068%=      5-min Rain = 0
KSP2 171328Z 01014KT 06/01 A3015 RMK A01 T00640010  RH  068%=      5-min Rain = 0
KSP2 171329Z 01016KT 06/01 A3015 RMK A01 T00640010  RH  068%=      5-min Rain = 0
KSP2 171330Z 01015KT 06/01 A3015 RMK A01 T00640010  RH  068%=      5-min Rain = 0
KSP2 171331Z 02016KT 07/01 A3015 RMK A01 T00650010  RH  068%=      5-min Rain = 0
KSP2 171332Z 01016KT 07/01 A3015 RMK A01 T00650010  RH  068%=      5-min Rain = 0
KSP2 171333Z 01012KT 07/01 A3015 RMK A01 T00660010  RH  068%=      5-min Rain = 0
KSP2 171334Z 01015KT 07/01 A3015 RMK A01 T00650010  RH  068%=      5-min Rain = 0
KSP2 171335Z 01015KT 07/01 A3015 RMK A01 T00650010  RH  068%=      5-min Rain = 0
KSP2 171336Z 02015KT 07/01 A3015 RMK A01 T00660010  RH  068%=      5-min Rain = 0
KSP2 171337Z 01016KT 07/01 A3015 RMK A01 T00660010  RH  068%=      5-min Rain = 0
KSP2 171338Z 01013G18KT 07/01 A3015 RMK A01 T00660010  RH  068%=      5-min Rain = 0
KSP2 171339Z 02013KT 07/01 A3015 RMK A01 T00660010  RH  068%=      5-min Rain = 0
KSP2 171340Z 02013KT 07/01 A3015 RMK A01 T00660010  RH  068%=      5-min Rain = 0
KSP2 171341Z 02014KT 07/01 A3015 RMK A01 T00660010  RH  068%=      5-min Rain = 0
KSP2 171342Z 01015G20KT 07/01 A3015 RMK A01 T00660010  RH  067%=      5-min Rain = 0
KSP2 171343Z 01013KT 07/01 A3015 RMK A01 T00670010  RH  067%=      5-min Rain = 0
KSP2 171344Z 01014KT 07/01 A3015 RMK A01 T00660010  RH  067%=      5-min Rain = 0
KSP2 171345Z 01016KT 07/01 A3015 RMK A01 T00660010  RH  067%=      5-min Rain = 0
KSP2 171346Z 01015KT 07/01 A3015 RMK A01 T00660010  RH  067%=      5-min Rain = 0
KSP2 171347Z 01016G21KT 07/01 A3016 RMK A01 T00660010  RH  067%=      5-min Rain = 0
KSP2 171348Z 01017KT 07/01 A3016 RMK A01 T00660010  RH  067%=      5-min Rain = 0
KSP2 171349Z 01016KT 07/01 A3016 RMK A01 T00670010  RH  067%=      5-min Rain = 0
KSP2 171350Z 01015KT 07/01 A3016 RMK A01 T00670010  RH  067%=      5-min Rain = 0
KSP2 171351Z 01018KT 07/01 A3016 RMK A01 T00680010  RH  067%=      5-min Rain = 0
KSP2 171352Z 01014KT 07/01 A3016 RMK A01 T00680010  RH  067%=      5-min Rain = 0
KSP2 171353Z 01014KT 07/01 A3016 RMK A01 T00670010  RH  067%=      5-min Rain = 0
KSP2 171354Z 01014KT 07/01 A3016 RMK A01 T00670010  RH  067%=      5-min Rain = 0
KSP2 171355Z 01016KT 07/01 A3016 RMK A01 T00670010  RH  067%=      5-min Rain = 0
KSP2 171356Z 01016KT 07/01 A3016 RMK A01 T00680010  RH  066%=      5-min Rain = 0
KSP2 171357Z 01015KT 07/01 A3016 RMK A01 T00690010  RH  066%=      5-min Rain = 0
KSP2 171358Z 01014KT 07/01 A3016 RMK A01 T00680010  RH  066%=      5-min Rain = 0
KSP2 171359Z 01014KT 07/01 A3016 RMK A01 T00680010  RH  066%=      5-min Rain = 0
KSP2 171400Z 01017G22KT 07/01 A3016 RMK A01 T00690010  RH  066%=      5-min Rain = 0
KSP2 171401Z 01017G22KT 07/01 A3016 RMK A01 T00690010  RH  066%=      5-min Rain = 0
KSP2 171402Z 01018KT 07/01 A3016 RMK A01 T00690010  RH  066%=      5-min Rain = 0
KSP2 171403Z 01016KT 07/01 A3016 RMK A01 T00690010  RH  066%=      5-min Rain = 0
KSP2 171404Z 01014KT 07/01 A3016 RMK A01 T00690010  RH  066%=      5-min Rain = 0
KSP2 171405Z 01014KT 07/01 A3016 RMK A01 T00700010  RH  066%=      5-min Rain = 0
KSP2 171406Z 01018KT 07/01 A3016 RMK A01 T00690010  RH  066%=      5-min Rain = 0
KSP2 171407Z 01020KT 07/01 A3017 RMK A01 T00700010  RH  066%=      5-min Rain = 0
KSP2 171408Z 01017KT 07/01 A3017 RMK A01 T00700010  RH  065%=      5-min Rain = 0
KSP2 171409Z 01016KT 07/01 A3017 RMK A01 T00700009  RH  065%=      5-min Rain = 0
KSP2 171410Z 01016KT 07/01 A3017 RMK A01 T00700010  RH  065%=      5-min Rain = 0
KSP2 171411Z 01017KT 07/01 A3017 RMK A01 T00710010  RH  065%=      5-min Rain = 0
KSP2 171412Z 01016KT 07/01 A3017 RMK A01 T00710010  RH  065%=      5-min Rain = 0
KSP2 171413Z 01014KT 07/01 A3017 RMK A01 T00710010  RH  065%=      5-min Rain = 0
KSP2 171414Z 01015KT 07/01 A3017 RMK A01 T00710010  RH  065%=      5-min Rain = 0
KSP2 171415Z 01014KT 07/01 A3017 RMK A01 T00710010  RH  065%=      5-min Rain = 0
KSP2 171416Z 01016G21KT 07/01 A3017 RMK A01 T00720010  RH  065%=      5-min Rain = 0
KSP2 171417Z 01018KT 07/01 A3017 RMK A01 T00720010  RH  065%=      5-min Rain = 0
KSP2 171418Z 01019KT 07/01 A3017 RMK A01 T00710009  RH  065%=      5-min Rain = 0
KSP2 171419Z 01016KT 07/01 A3017 RMK A01 T00720009  RH  065%=      5-min Rain = 0
KSP2 171420Z 01016KT 07/01 A3017 RMK A01 T00720010  RH  065%=      5-min Rain = 0
KSP2 171421Z 01015KT 07/01 A3017 RMK A01 T00720010  RH  065%=      5-min Rain = 0
KSP2 171422Z 01018G23KT 07/01 A3017 RMK A01 T00720010  RH  064%=      5-min Rain = 0
KSP2 171423Z 01020KT 07/01 A3017 RMK A01 T00720009  RH  064%=      5-min Rain = 0
KSP2 171424Z 00020KT 07/01 A3017 RMK A01 T00730009  RH  064%=      5-min Rain = 0
KSP2 171425Z 01017KT 07/01 A3017 RMK A01 T00730010  RH  064%=      5-min Rain = 0
KSP2 171426Z 01017KT 07/01 A3017 RMK A01 T00730010  RH  064%=      5-min Rain = 0
KSP2 171427Z 01015G20KT 07/01 A3017 RMK A01 T00730010  RH  064%=      5-min Rain = 0
KSP2 171428Z 01013KT 07/01 A3017 RMK A01 T00740011  RH  064%=      5-min Rain = 0
KSP2 171429Z 01017KT 08/01 A3017 RMK A01 T00750011  RH  064%=      5-min Rain = 0
KSP2 171430Z 01014G19KT 08/01 A3017 RMK A01 T00750011  RH  064%=      5-min Rain = 0
KSP2 171431Z 01012KT 08/01 A3017 RMK A01 T00750011  RH  064%=      5-min Rain = 0
KSP2 171432Z 01014KT 08/01 A3017 RMK A01 T00760011  RH  064%=      5-min Rain = 0
KSP2 171433Z 00015G22KT 08/01 A3017 RMK A01 T00760011  RH  063%=      5-min Rain = 0
KSP2 171434Z 01018G23KT 08/01 A3017 RMK A01 T00760011  RH  063%=      5-min Rain = 0
KSP2 171435Z 02014KT 08/01 A3017 RMK A01 T00760010  RH  063%=      5-min Rain = 0
KSP2 171436Z 01013G18KT 08/01 A3017 RMK A01 T00770012  RH  063%=      5-min Rain = 0
KSP2 171437Z 02017KT 08/01 A3017 RMK A01 T00780011  RH  063%=      5-min Rain = 0
KSP2 171438Z 01016KT 08/01 A3017 RMK A01 T00780011  RH  063%=      5-min Rain = 0
KSP2 171439Z 01016KT 08/01 A3017 RMK A01 T00780011  RH  063%=      5-min Rain = 0
KSP2 171440Z 01017G23KT 08/01 A3017 RMK A01 T00780011  RH  062%=      5-min Rain = 0
KSP2 171441Z 02017G23KT 08/01 A3017 RMK A01 T00780011  RH  062%=      5-min Rain = 0
KSP2 171442Z 01017KT 08/01 A3017 RMK A01 T00780011  RH  062%=      5-min Rain = 0
KSP2 171443Z 01016KT 08/01 A3017 RMK A01 T00790011  RH  062%=      5-min Rain = 0
KSP2 171444Z 01014KT 08/01 A3017 RMK A01 T00790011  RH  062%=      5-min Rain = 0
KSP2 171445Z 02016KT 08/01 A3017 RMK A01 T00800012  RH  062%=      5-min Rain = 0
KSP2 171446Z 01019KT 08/01 A3017 RMK A01 T00810011  RH  062%=      5-min Rain = 0
KSP2 171447Z 01017G23KT 08/01 A3017 RMK A01 T00810011  RH  061%=      5-min Rain = 0
KSP2 171448Z 01019KT 08/01 A3017 RMK A01 T00810011  RH  061%=      5-min Rain = 0
KSP2 171449Z 01015KT 08/01 A3017 RMK A01 T00810011  RH  061%=      5-min Rain = 0
KSP2 171450Z 01015G21KT 08/01 A3017 RMK A01 T00810011  RH  061%=      5-min Rain = 0
KSP2 171451Z 02014KT 08/01 A3017 RMK A01 T00810011  RH  061%=      5-min Rain = 0
KSP2 171452Z 01018G24KT 08/01 A3017 RMK A01 T00820011  RH  061%=      5-min Rain = 0
KSP2 171453Z 01016G22KT 08/01 A3017 RMK A01 T00820011  RH  061%=      5-min Rain = 0
KSP2 171454Z 01020G26KT 08/01 A3017 RMK A01 T00830011  RH  061%=      5-min Rain = 0
KSP2 171455Z 01018KT 08/01 A3017 RMK A01 T00830011  RH  060%=      5-min Rain = 0
KSP2 171456Z 01017KT 08/01 A3017 RMK A01 T00820011  RH  061%=      5-min Rain = 0
KSP2 171457Z 01016KT 08/01 A3017 RMK A01 T00830012  RH  061%=      5-min Rain = 0
KSP2 171458Z 01014KT 08/01 A3017 RMK A01 T00840012  RH  060%=      5-min Rain = 0
KSP2 171459Z 01012KT 09/01 A3017 RMK A01 T00850012  RH  060%=      5-min Rain = 0
KSP2 171500Z 02014KT 09/01 A3017 RMK A01 T00860013  RH  060%=      5-min Rain = 0
KSP2 171501Z 02016KT 09/01 A3017 RMK A01 T00870013  RH  059%=      5-min Rain = 0
KSP2 171502Z 01019G24KT 09/01 A3017 RMK A01 T00870012  RH  059%=      5-min Rain = 0
KSP2 171503Z 01022KT 09/01 A3017 RMK A01 T00870011  RH  059%=      5-min Rain = 0
KSP2 171504Z 02019KT 09/01 A3017 RMK A01 T00850011  RH  059%=      5-min Rain = 0
KSP2 171505Z 02017KT 09/01 A3017 RMK A01 T00850011  RH  060%=      5-min Rain = 0
KSP2 171506Z 02014KT 09/01 A3017 RMK A01 T00850012  RH  060%=      5-min Rain = 0
KSP2 171507Z 01014G21KT 09/01 A3017 RMK A01 T00860012  RH  060%=      5-min Rain = 0
KSP2 171508Z 01017KT 09/01 A3017 RMK A01 T00870012  RH  059%=      5-min Rain = 0
KSP2 171509Z 01019KT 09/01 A3017 RMK A01 T00870012  RH  059%=      5-min Rain = 0
KSP2 171510Z 02017KT 09/01 A3017 RMK A01 T00870012  RH  059%=      5-min Rain = 0
KSP2 171511Z 01015KT 09/01 A3017 RMK A01 T00880012  RH  059%=      5-min Rain = 0
KSP2 171512Z 01017G22KT 09/01 A3017 RMK A01 T00890012  RH  059%=      5-min Rain = 0
KSP2 171513Z 01016KT 09/01 A3017 RMK A01 T00900012  RH  058%=      5-min Rain = 0
KSP2 171514Z 02018KT 09/01 A3017 RMK A01 T00900013  RH  058%=      5-min Rain = 0
KSP2 171515Z 02014KT 09/01 A3017 RMK A01 T00910013  RH  058%=      5-min Rain = 0
KSP2 171516Z 02012G18KT 09/01 A3017 RMK A01 T00920013  RH  058%=      5-min Rain = 0
KSP2 171517Z 01016G22KT 09/01 A3017 RMK A01 T00930013  RH  058%=      5-min Rain = 0
KSP2 171518Z 01017G22KT 09/01 A3017 RMK A01 T00930012  RH  057%=      5-min Rain = 0
KSP2 171519Z 02016KT 09/01 A3017 RMK A01 T00920013  RH  057%=      5-min Rain = 0
KSP2 171520Z 01013KT 09/01 A3017 RMK A01 T00920013  RH  058%=      5-min Rain = 0
KSP2 171521Z 01015G24KT 09/01 A3017 RMK A01 T00930014  RH  058%=      5-min Rain = 0
KSP2 171522Z 01016KT 09/01 A3017 RMK A01 T00940013  RH  057%=      5-min Rain = 0
KSP2 171523Z 02012G18KT 09/01 A3017 RMK A01 T00930013  RH  057%=      5-min Rain = 0
KSP2 171524Z 01011KT 09/01 A3018 RMK A01 T00930013  RH  057%=      5-min Rain = 0
KSP2 171525Z 02012KT 10/01 A3018 RMK A01 T00950014  RH  057%=      5-min Rain = 0
KSP2 171526Z 02013KT 10/02 A3018 RMK A01 T00960015  RH  057%=      5-min Rain = 0
KSP2 171527Z 02017G22KT 10/01 A3018 RMK A01 T00970014  RH  056%=      5-min Rain = 0
KSP2 171528Z 01020KT 10/01 A3018 RMK A01 T00950012  RH  056%=      5-min Rain = 0
KSP2 171529Z 01016KT 09/01 A3018 RMK A01 T00930012  RH  057%=      5-min Rain = 0
KSP2 171530Z 01014G20KT 09/01 A3018 RMK A01 T00940013  RH  057%=      5-min Rain = 0
KSP2 171531Z 01013G18KT 10/02 A3018 RMK A01 T00960015  RH  057%=      5-min Rain = 0
KSP2 171532Z 02013G19KT 10/01 A3018 RMK A01 T00970014  RH  056%=      5-min Rain = 0
KSP2 171533Z 02013G19KT 10/01 A3018 RMK A01 T00970014  RH  056%=      5-min Rain = 0
KSP2 171534Z 02014KT 10/01 A3018 RMK A01 T00980014  RH  056%=      5-min Rain = 0
KSP2 171535Z 01015KT 10/01 A3018 RMK A01 T00980014  RH  056%=      5-min Rain = 0
KSP2 171536Z 02016KT 10/01 A3018 RMK A01 T00980014  RH  056%=      5-min Rain = 0
KSP2 171537Z 02017G23KT 10/01 A3018 RMK A01 T00970013  RH  056%=      5-min Rain = 0
KSP2 171538Z 02016KT 10/01 A3018 RMK A01 T00950012  RH  056%=      5-min Rain = 0
KSP2 171539Z 02012G18KT 09/01 A3018 RMK A01 T00940013  RH  057%=      5-min Rain = 0
KSP2 171540Z 03014G19KT 10/01 A3018 RMK A01 T00950014  RH  057%=      5-min Rain = 0
KSP2 171541Z 03015KT 10/01 A3017 RMK A01 T00960013  RH  056%=      5-min Rain = 0
KSP2 171542Z 02010KT 10/01 A3018 RMK A01 T00960014  RH  057%=      5-min Rain = 0
KSP2 171543Z 01013G19KT 10/02 A3018 RMK A01 T00990016  RH  056%=      5-min Rain = 0
KSP2 171544Z 02013KT 10/01 A3017 RMK A01 T00990014  RH  055%=      5-min Rain = 0
KSP2 171545Z 01013G18KT 10/02 A3018 RMK A01 T01010015  RH  055%=      5-min Rain = 0
KSP2 171546Z 02014G19KT 10/02 A3017 RMK A01 T01020015  RH  055%=      5-min Rain = 0
KSP2 171547Z 01016KT 10/01 A3017 RMK A01 T01000014  RH  055%=      5-min Rain = 0
KSP2 171548Z 02012G18KT 10/01 A3017 RMK A01 T00990014  RH  055%=      5-min Rain = 0
KSP2 171549Z 01013G19KT 10/02 A3018 RMK A01 T01010015  RH  055%=      5-min Rain = 0
KSP2 171550Z 00017KT 10/01 A3018 RMK A01 T01020014  RH  055%=      5-min Rain = 0
KSP2 171551Z 01012KT 10/01 A3018 RMK A01 T01000013  RH  055%=      5-min Rain = 0
KSP2 171552Z 03013KT 10/01 A3018 RMK A01 T01000014  RH  055%=      5-min Rain = 0
KSP2 171553Z 00015KT 10/01 A3018 RMK A01 T01000014  RH  055%=      5-min Rain = 0
KSP2 171554Z 02015G20KT 10/01 A3018 RMK A01 T01000013  RH  055%=      5-min Rain = 0
KSP2 171555Z 02016KT 10/01 A3018 RMK A01 T01000014  RH  055%=      5-min Rain = 0
KSP2 171556Z 02018KT 10/01 A3018 RMK A01 T01000013  RH  055%=      5-min Rain = 0
KSP2 171557Z 02017KT 10/01 A3018 RMK A01 T01000013  RH  055%=      5-min Rain = 0
KSP2 171558Z 02016KT 10/01 A3018 RMK A01 T00990013  RH  055%=      5-min Rain = 0
KSP2 171559Z 01015KT 10/01 A3018 RMK A01 T00990013  RH  055%=      5-min Rain = 0
KSP2 171600Z 03012KT 10/01 A3018 RMK A01 T01000014  RH  055%=      5-min Rain = 0
KSP2 171601Z 02013KT 10/01 A3018 RMK A01 T01010014  RH  055%=      5-min Rain = 0
KSP2 171602Z 01016KT 10/02 A3018 RMK A01 T01020015  RH  055%=      5-min Rain = 0
KSP2 171603Z 02016KT 10/01 A3018 RMK A01 T01030014  RH  054%=      5-min Rain = 0
KSP2 171604Z 02015KT 10/01 A3018 RMK A01 T01020014  RH  054%=      5-min Rain = 0
KSP2 171605Z 02015G20KT 10/02 A3018 RMK A01 T01030015  RH  054%=      5-min Rain = 0
KSP2 171606Z 02014KT 10/01 A3018 RMK A01 T01040014  RH  054%=      5-min Rain = 0
KSP2 171607Z 01011KT 10/02 A3018 RMK A01 T01030015  RH  054%=      5-min Rain = 0
KSP2 171608Z 01011KT 11/02 A3018 RMK A01 T01050015  RH  054%=      5-min Rain = 0
KSP2 171609Z 02014KT 11/02 A3018 RMK A01 T01060016  RH  053%=      5-min Rain = 0
KSP2 171610Z 02012KT 11/01 A3018 RMK A01 T01060014  RH  053%=      5-min Rain = 0
KSP2 171611Z 02012KT 11/02 A3018 RMK A01 T01060015  RH  053%=      5-min Rain = 0
KSP2 171612Z 02013KT 11/02 A3018 RMK A01 T01070015  RH  053%=      5-min Rain = 0
KSP2 171613Z 02013KT 11/02 A3018 RMK A01 T01070015  RH  053%=      5-min Rain = 0
KSP2 171614Z 02013KT 11/02 A3018 RMK A01 T01070015  RH  053%=      5-min Rain = 0
KSP2 171615Z 02015KT 11/02 A3018 RMK A01 T01080016  RH  053%=      5-min Rain = 0
KSP2 171616Z 02013KT 11/02 A3018 RMK A01 T01080015  RH  053%=      5-min Rain = 0
KSP2 171617Z 02014G19KT 11/02 A3018 RMK A01 T01090015  RH  052%=      5-min Rain = 0
KSP2 171618Z 01013KT 11/02 A3018 RMK A01 T01080015  RH  053%=      5-min Rain = 0
KSP2 171619Z 02014KT 11/02 A3018 RMK A01 T01100016  RH  052%=      5-min Rain = 0
KSP2 171620Z 02014KT 11/02 A3018 RMK A01 T01110016  RH  052%=      5-min Rain = 0
KSP2 171621Z 02015KT 11/02 A3018 RMK A01 T01100015  RH  052%=      5-min Rain = 0
KSP2 171622Z 02014KT 11/02 A3018 RMK A01 T01090015  RH  052%=      5-min Rain = 0
KSP2 171623Z 01015KT 11/02 A3018 RMK A01 T01100016  RH  052%=      5-min Rain = 0
KSP2 171624Z 01016KT 11/02 A3018 RMK A01 T01110015  RH  052%=      5-min Rain = 0
KSP2 171625Z 01014G19KT 11/01 A3018 RMK A01 T01090014  RH  052%=      5-min Rain = 0
KSP2 171626Z 02015KT 11/02 A3018 RMK A01 T01080015  RH  052%=      5-min Rain = 0
KSP2 171627Z 01013KT 11/02 A3018 RMK A01 T01080015  RH  052%=      5-min Rain = 0
KSP2 171628Z 02014KT 11/02 A3018 RMK A01 T01090015  RH  052%=      5-min Rain = 0
KSP2 171629Z 02011KT 11/02 A3018 RMK A01 T01090015  RH  052%=      5-min Rain = 0
KSP2 171630Z 01012KT 11/02 A3018 RMK A01 T01110017  RH  052%=      5-min Rain = 0
KSP2 171631Z 02014KT 11/02 A3018 RMK A01 T01120015  RH  051%=      5-min Rain = 0
KSP2 171632Z 01014KT 11/02 A3018 RMK A01 T01120015  RH  052%=      5-min Rain = 0
KSP2 171633Z 02012KT 11/02 A3018 RMK A01 T01120015  RH  051%=      5-min Rain = 0
KSP2 171634Z 01015KT 11/02 A3018 RMK A01 T01130016  RH  051%=      5-min Rain = 0
KSP2 171635Z 01013KT 12/02 A3018 RMK A01 T01150015  RH  050%=      5-min Rain = 0
KSP2 171636Z 02010KT 12/02 A3018 RMK A01 T01150016  RH  051%=      5-min Rain = 0
KSP2 171637Z 03011KT 12/02 A3018 RMK A01 T01180017  RH  050%=      5-min Rain = 0
KSP2 171638Z 02010KT 12/02 A3018 RMK A01 T01190017  RH  050%=      5-min Rain = 0
KSP2 171639Z 02011KT 12/02 A3018 RMK A01 T01200018  RH  050%=      5-min Rain = 0
KSP2 171640Z 03011G17KT 12/02 A3018 RMK A01 T01210018  RH  049%=      5-min Rain = 0
KSP2 171641Z 02012KT 12/02 A3018 RMK A01 T01210016  RH  049%=      5-min Rain = 0
KSP2 171642Z 01011KT 12/02 A3017 RMK A01 T01190016  RH  049%=      5-min Rain = 0
KSP2 171643Z 02011KT 12/02 A3017 RMK A01 T01190017  RH  050%=      5-min Rain = 0
KSP2 171644Z 02012KT 12/02 A3017 RMK A01 T01190017  RH  050%=      5-min Rain = 0
KSP2 171645Z 00012KT 12/02 A3017 RMK A01 T01200017  RH  050%=      5-min Rain = 0
KSP2 171646Z 36011KT 12/02 A3017 RMK A01 T01210017  RH  049%=      5-min Rain = 0
KSP2 171647Z 36012KT 12/02 A3017 RMK A01 T01210017  RH  049%=      5-min Rain = 0
KSP2 171648Z 00013KT 12/02 A3017 RMK A01 T01190016  RH  049%=      5-min Rain = 0
KSP2 171649Z 02012KT 12/02 A3017 RMK A01 T01190016  RH  049%=      5-min Rain = 0
KSP2 171650Z 01010KT 12/02 A3017 RMK A01 T01190016  RH  049%=      5-min Rain = 0
KSP2 171651Z 02012KT 12/02 A3017 RMK A01 T01190016  RH  049%=      5-min Rain = 0
KSP2 171652Z 01012KT 12/02 A3017 RMK A01 T01210017  RH  049%=      5-min Rain = 0
KSP2 171653Z 03014G19KT 12/02 A3017 RMK A01 T01220017  RH  049%=      5-min Rain = 0
KSP2 171654Z 02016G22KT 12/02 A3017 RMK A01 T01230016  RH  048%=      5-min Rain = 0
KSP2 171655Z 02014KT 12/02 A3017 RMK A01 T01210016  RH  048%=      5-min Rain = 0
KSP2 171656Z 03013KT 12/02 A3017 RMK A01 T01200016  RH  049%=      5-min Rain = 0
KSP2 171657Z 01014KT 12/02 A3017 RMK A01 T01200016  RH  049%=      5-min Rain = 0
KSP2 171658Z 00014KT 12/02 A3017 RMK A01 T01200016  RH  049%=      5-min Rain = 0
KSP2 171659Z 36013KT 12/02 A3017 RMK A01 T01200016  RH  049%=      5-min Rain = 0
KSP2 171700Z 01011KT 12/02 A3017 RMK A01 T01200016  RH  049%=      5-min Rain = 0
KSP2 171701Z 01012KT 12/02 A3017 RMK A01 T01200017  RH  049%=      5-min Rain = 0
KSP2 171702Z 00013KT 12/02 A3017 RMK A01 T01210017  RH  049%=      5-min Rain = 0
KSP2 171703Z 00012KT 12/02 A3017 RMK A01 T01210017  RH  049%=      5-min Rain = 0
KSP2 171704Z 01011KT 12/02 A3017 RMK A01 T01220018  RH  049%=      5-min Rain = 0
KSP2 171705Z 02010KT 12/02 A3017 RMK A01 T01230018  RH  049%=      5-min Rain = 0
KSP2 171706Z 03009KT 12/02 A3017 RMK A01 T01240018  RH  048%=      5-min Rain = 0
KSP2 171707Z 03011KT 13/02 A3017 RMK A01 T01250018  RH  048%=      5-min Rain = 0
KSP2 171708Z 01012KT 13/02 A3017 RMK A01 T01250018  RH  048%=      5-min Rain = 0
KSP2 171709Z 01010KT 12/02 A3017 RMK A01 T01240017  RH  048%=      5-min Rain = 0
KSP2 171710Z 00012KT 12/02 A3017 RMK A01 T01240018  RH  048%=      5-min Rain = 0
KSP2 171711Z 02011KT 13/02 A3018 RMK A01 T01250018  RH  048%=      5-min Rain = 0
KSP2 171712Z 02011KT 13/02 A3018 RMK A01 T01260017  RH  048%=      5-min Rain = 0
KSP2 171713Z 02012KT 13/02 A3018 RMK A01 T01260018  RH  048%=      5-min Rain = 0
KSP2 171714Z 03009KT 13/02 A3018 RMK A01 T01250017  RH  048%=      5-min Rain = 0
KSP2 171715Z 02013KT 13/02 A3017 RMK A01 T01250017  RH  048%=      5-min Rain = 0
KSP2 171716Z 02010KT 12/02 A3017 RMK A01 T01240017  RH  048%=      5-min Rain = 0
KSP2 171717Z 02009KT 13/02 A3017 RMK A01 T01260018  RH  048%=      5-min Rain = 0
KSP2 171718Z 01009KT 13/02 A3017 RMK A01 T01260018  RH  048%=      5-min Rain = 0
KSP2 171719Z 03008KT 13/02 A3017 RMK A01 T01280019  RH  048%=      5-min Rain = 0
KSP2 171720Z 03013KT 13/02 A3017 RMK A01 T01280018  RH  047%=      5-min Rain = 0
KSP2 171721Z 03010KT 13/02 A3017 RMK A01 T01270017  RH  047%=      5-min Rain = 0
KSP2 171722Z 03010KT 13/02 A3017 RMK A01 T01270018  RH  047%=      5-min Rain = 0
KSP2 171723Z 01010KT 13/02 A3017 RMK A01 T01260018  RH  048%=      5-min Rain = 0
KSP2 171724Z 02009KT 13/02 A3017 RMK A01 T01270019  RH  048%=      5-min Rain = 0
KSP2 171725Z 04011KT 13/02 A3017 RMK A01 T01300020  RH  047%=      5-min Rain = 0
KSP2 171726Z 04010KT 13/02 A3017 RMK A01 T01310018  RH  046%=      5-min Rain = 0
KSP2 171727Z 03011KT 13/02 A3017 RMK A01 T01300018  RH  047%=      5-min Rain = 0
KSP2 171728Z 03010KT 13/02 A3017 RMK A01 T01300019  RH  047%=      5-min Rain = 0
KSP2 171729Z 02010KT 13/02 A3017 RMK A01 T01310018  RH  046%=      5-min Rain = 0
KSP2 171730Z 00011KT 13/02 A3017 RMK A01 T01310018  RH  046%=      5-min Rain = 0
KSP2 171731Z 01009KT 13/02 A3017 RMK A01 T01280017  RH  047%=      5-min Rain = 0
KSP2 171732Z 01010KT 13/02 A3017 RMK A01 T01280018  RH  047%=      5-min Rain = 0
KSP2 171733Z 02008KT 13/02 A3017 RMK A01 T01310020  RH  047%=      5-min Rain = 0
KSP2 171734Z 02007KT 13/02 A3017 RMK A01 T01330019  RH  046%=      5-min Rain = 0
KSP2 171735Z 00012KT 13/02 A3017 RMK A01 T01310019  RH  046%=      5-min Rain = 0
KSP2 171736Z 36011KT 13/02 A3017 RMK A01 T01290018  RH  047%=      5-min Rain = 0
KSP2 171737Z 35010KT 13/02 A3016 RMK A01 T01280018  RH  047%=      5-min Rain = 0
KSP2 171738Z 36010KT 13/02 A3016 RMK A01 T01300019  RH  047%=      5-min Rain = 0
KSP2 171739Z 36010KT 13/02 A3016 RMK A01 T01320020  RH  046%=      5-min Rain = 0
KSP2 171740Z 00010KT 13/02 A3016 RMK A01 T01330019  RH  046%=      5-min Rain = 0
KSP2 171741Z 01010KT 14/02 A3016 RMK A01 T01350019  RH  045%=      5-min Rain = 0
KSP2 171742Z 02009KT 14/02 A3016 RMK A01 T01350019  RH  045%=      5-min Rain = 0
KSP2 171743Z 02011KT 14/02 A3016 RMK A01 T01350018  RH  045%=      5-min Rain = 0
KSP2 171744Z 01012KT 14/02 A3016 RMK A01 T01350019  RH  045%=      5-min Rain = 0
KSP2 171745Z 03011KT 14/02 A3016 RMK A01 T01350019  RH  045%=      5-min Rain = 0
KSP2 171746Z 03009KT 14/02 A3016 RMK A01 T01350018  RH  045%=      5-min Rain = 0
KSP2 171747Z 03011KT 14/02 A3016 RMK A01 T01350019  RH  045%=      5-min Rain = 0
KSP2 171748Z 04009G14KT 14/02 A3016 RMK A01 T01360019  RH  045%=      5-min Rain = 0
KSP2 171749Z 03010KT 14/02 A3016 RMK A01 T01370019  RH  045%=      5-min Rain = 0
KSP2 171750Z 01009KT 14/02 A3016 RMK A01 T01390020  RH  045%=      5-min Rain = 0
KSP2 171751Z 00013KT 14/02 A3016 RMK A01 T01390019  RH  044%=      5-min Rain = 0
KSP2 171752Z 01013KT 14/02 A3016 RMK A01 T01380019  RH  044%=      5-min Rain = 0
KSP2 171753Z 01012KT 14/02 A3016 RMK A01 T01360017  RH  045%=      5-min Rain = 0
KSP2 171754Z 00009KT 13/02 A3016 RMK A01 T01330017  RH  045%=      5-min Rain = 0
KSP2 171755Z 02010KT 13/02 A3016 RMK A01 T01330018  RH  046%=      5-min Rain = 0
KSP2 171756Z 01010KT 13/02 A3016 RMK A01 T01340019  RH  046%=      5-min Rain = 0
KSP2 171757Z 01014KT 14/02 A3016 RMK A01 T01350019  RH  045%=      5-min Rain = 0
KSP2 171758Z 02012KT 14/02 A3016 RMK A01 T01350018  RH  045%=      5-min Rain = 0
KSP2 171759Z 02011KT 14/02 A3016 RMK A01 T01370019  RH  045%=      5-min Rain = 0
KSP2 171800Z 01010KT 14/02 A3016 RMK A01 T01380019  RH  045%=      5-min Rain = 0
KSP2 171801Z 02010KT 14/02 A3016 RMK A01 T01380019  RH  044%=      5-min Rain = 0
KSP2 171802Z 02008KT 14/02 A3016 RMK A01 T01390022  RH  045%=      5-min Rain = 0
KSP2 171803Z 01010KT 14/02 A3016 RMK A01 T01430021  RH  044%=      5-min Rain = 0
KSP2 171804Z 00012KT 14/02 A3016 RMK A01 T01420020  RH  044%=      5-min Rain = 0
KSP2 171805Z 03010KT 14/02 A3016 RMK A01 T01410021  RH  044%=      5-min Rain = 0
KSP2 171806Z 01012KT 14/02 A3016 RMK A01 T01420021  RH  044%=      5-min Rain = 0
KSP2 171807Z 01013KT 14/02 A3016 RMK A01 T01420020  RH  043%=      5-min Rain = 0
KSP2 171808Z 02015KT 14/02 A3016 RMK A01 T01420019  RH  043%=      5-min Rain = 0
KSP2 171809Z 02012KT 14/02 A3016 RMK A01 T01400017  RH  043%=      5-min Rain = 0
KSP2 171810Z 02011KT 14/02 A3016 RMK A01 T01360017  RH  044%=      5-min Rain = 0
KSP2 171811Z 01007KT 13/02 A3016 RMK A01 T01340018  RH  045%=      5-min Rain = 0
KSP2 171812Z 02011KT 14/02 A3016 RMK A01 T01380021  RH  045%=      5-min Rain = 0
KSP2 171813Z 01011KT 14/02 A3016 RMK A01 T01410021  RH  044%=      5-min Rain = 0
KSP2 171814Z 02013KT 14/02 A3016 RMK A01 T01420020  RH  044%=      5-min Rain = 0
KSP2 171815Z 00012KT 14/02 A3016 RMK A01 T01420020  RH  044%=      5-min Rain = 0
KSP2 171816Z 35009KT 14/02 A3016 RMK A01 T01410021  RH  044%=      5-min Rain = 0
KSP2 171817Z 36011G16KT 14/02 A3016 RMK A01 T01430023  RH  044%=      5-min Rain = 0
KSP2 171818Z 02011KT 15/02 A3016 RMK A01 T01450021  RH  043%=      5-min Rain = 0
KSP2 171819Z 03010KT 15/02 A3016 RMK A01 T01450021  RH  043%=      5-min Rain = 0
KSP2 171820Z 01015KT 15/02 A3016 RMK A01 T01450021  RH  043%=      5-min Rain = 0
KSP2 171821Z 00014KT 15/02 A3016 RMK A01 T01450020  RH  043%=      5-min Rain = 0
KSP2 171822Z 02013KT 14/02 A3016 RMK A01 T01440020  RH  043%=      5-min Rain = 0
KSP2 171823Z 02014KT 14/02 A3016 RMK A01 T01440020  RH  043%=      5-min Rain = 0
KSP2 171824Z 02014KT 14/02 A3016 RMK A01 T01420020  RH  043%=      5-min Rain = 0
KSP2 171825Z 01011KT 14/02 A3016 RMK A01 T01410020  RH  044%=      5-min Rain = 0
KSP2 171826Z 01010KT 14/02 A3016 RMK A01 T01410021  RH  044%=      5-min Rain = 0
KSP2 171827Z 03010KT 14/02 A3016 RMK A01 T01430022  RH  044%=      5-min Rain = 0
KSP2 171828Z 01011G17KT 14/02 A3016 RMK A01 T01440021  RH  043%=      5-min Rain = 0
KSP2 171829Z 00013G18KT 14/02 A3016 RMK A01 T01440021  RH  043%=      5-min Rain = 0
KSP2 171830Z 36010KT 14/02 A3016 RMK A01 T01430022  RH  044%=      5-min Rain = 0
KSP2 171831Z 34011G16KT 15/02 A3015 RMK A01 T01460022  RH  043%=      5-min Rain = 0
KSP2 171832Z 36015KT 15/02 A3015 RMK A01 T01450021  RH  043%=      5-min Rain = 0
KSP2 171833Z 35014KT 14/02 A3015 RMK A01 T01440021  RH  043%=      5-min Rain = 0
KSP2 171834Z 00013KT 14/02 A3015 RMK A01 T01420021  RH  044%=      5-min Rain = 0
KSP2 171835Z 01017KT 14/02 A3016 RMK A01 T01430021  RH  043%=      5-min Rain = 0
KSP2 171836Z 36013KT 14/02 A3016 RMK A01 T01410020  RH  044%=      5-min Rain = 0
KSP2 171837Z 35013KT 14/02 A3016 RMK A01 T01420021  RH  044%=      5-min Rain = 0
KSP2 171838Z 00015KT 14/02 A3015 RMK A01 T01420021  RH  044%=      5-min Rain = 0
KSP2 171839Z 36017KT 14/02 A3015 RMK A01 T01410020  RH  044%=      5-min Rain = 0
KSP2 171840Z 00012KT 14/02 A3016 RMK A01 T01410021  RH  044%=      5-min Rain = 0
KSP2 171841Z 01011KT 14/02 A3016 RMK A01 T01430022  RH  044%=      5-min Rain = 0
KSP2 171842Z 35007G15KT 15/02 A3016 RMK A01 T01460024  RH  044%=      5-min Rain = 0
KSP2 171843Z 36015KT 15/02 A3016 RMK A01 T01500024  RH  043%=      5-min Rain = 0
KSP2 171844Z 35012KT 15/02 A3016 RMK A01 T01490021  RH  042%=      5-min Rain = 0
KSP2 171845Z 36012KT 15/02 A3016 RMK A01 T01470021  RH  042%=      5-min Rain = 0
KSP2 171846Z 36015KT 15/02 A3016 RMK A01 T01460021  RH  043%=      5-min Rain = 0
KSP2 171847Z 01014KT 14/02 A3016 RMK A01 T01440019  RH  043%=      5-min Rain = 0
KSP2 171848Z 35011KT 14/02 A3016 RMK A01 T01420020  RH  044%=      5-min Rain = 0
KSP2 171849Z 01011G16KT 14/02 A3016 RMK A01 T01430022  RH  044%=      5-min Rain = 0
KSP2 171850Z 00015G20KT 15/02 A3016 RMK A01 T01470022  RH  043%=      5-min Rain = 0
KSP2 171851Z 00018KT 15/02 A3016 RMK A01 T01460019  RH  042%=      5-min Rain = 0
KSP2 171852Z 00015KT 14/02 A3015 RMK A01 T01420018  RH  043%=      5-min Rain = 0
KSP2 171853Z 36013KT 14/02 A3015 RMK A01 T01410019  RH  044%=      5-min Rain = 0
KSP2 171854Z 00012G18KT 14/02 A3015 RMK A01 T01410020  RH  044%=      5-min Rain = 0
KSP2 171855Z 01012KT 14/02 A3015 RMK A01 T01410020  RH  044%=      5-min Rain = 0
KSP2 171856Z 02011G17KT 14/02 A3015 RMK A01 T01410019  RH  044%=      5-min Rain = 0
KSP2 171857Z 01014KT 14/02 A3015 RMK A01 T01420019  RH  044%=      5-min Rain = 0
KSP2 171858Z 01011KT 14/02 A3015 RMK A01 T01410019  RH  044%=      5-min Rain = 0
KSP2 171859Z 02009G15KT 14/02 A3015 RMK A01 T01410021  RH  044%=      5-min Rain = 0
KSP2 171900Z 01014KT 14/02 A3015 RMK A01 T01440022  RH  044%=      5-min Rain = 0
KSP2 171901Z 01012KT 15/02 A3015 RMK A01 T01470021  RH  042%=      5-min Rain = 0
KSP2 171902Z 36012KT 15/02 A3014 RMK A01 T01480021  RH  042%=      5-min Rain = 0
KSP2 171903Z 01014KT 15/02 A3014 RMK A01 T01470020  RH  042%=      5-min Rain = 0
KSP2 171904Z 01012KT 14/02 A3014 RMK A01 T01440019  RH  043%=      5-min Rain = 0
KSP2 171905Z 35014KT 14/02 A3014 RMK A01 T01430020  RH  043%=      5-min Rain = 0
KSP2 171906Z 00015KT 14/02 A3014 RMK A01 T01440019  RH  043%=      5-min Rain = 0
KSP2 171907Z 36014KT 14/02 A3014 RMK A01 T01420019  RH  043%=      5-min Rain = 0
KSP2 171908Z 01013KT 14/02 A3014 RMK A01 T01410019  RH  044%=      5-min Rain = 0
KSP2 171909Z 02013KT 14/02 A3014 RMK A01 T01420020  RH  044%=      5-min Rain = 0
KSP2 171910Z 02014KT 14/02 A3014 RMK A01 T01440020  RH  043%=      5-min Rain = 0
KSP2 171911Z 02012KT 14/02 A3014 RMK A01 T01440019  RH  043%=      5-min Rain = 0
KSP2 171912Z 02015KT 14/02 A3014 RMK A01 T01440020  RH  043%=      5-min Rain = 0
KSP2 171913Z 36014G19KT 15/02 A3014 RMK A01 T01450020  RH  043%=      5-min Rain = 0
KSP2 171914Z 01013KT 15/02 A3014 RMK A01 T01460020  RH  042%=      5-min Rain = 0
KSP2 171915Z 00014KT 15/02 A3014 RMK A01 T01460019  RH  042%=      5-min Rain = 0
KSP2 171916Z 36012G17KT 15/02 A3014 RMK A01 T01450019  RH  042%=      5-min Rain = 0
KSP2 171917Z 01015KT 15/02 A3014 RMK A01 T01460019  RH  042%=      5-min Rain = 0
KSP2 171918Z 01012KT 15/02 A3014 RMK A01 T01450018  RH  042%=      5-min Rain = 0
KSP2 171919Z 02013KT 15/02 A3014 RMK A01 T01470020  RH  042%=      5-min Rain = 0
KSP2 171920Z 01013KT 15/02 A3014 RMK A01 T01460019  RH  042%=      5-min Rain = 0
KSP2 171921Z 01010KT 15/02 A3013 RMK A01 T01450019  RH  043%=      5-min Rain = 0
KSP2 171922Z 00012KT 15/02 A3013 RMK A01 T01450020  RH  043%=      5-min Rain = 0
KSP2 171923Z 00014KT 15/02 A3013 RMK A01 T01460019  RH  042%=      5-min Rain = 0
KSP2 171924Z 36015KT 15/02 A3013 RMK A01 T01450019  RH  042%=      5-min Rain = 0
KSP2 171925Z 35013KT 15/02 A3013 RMK A01 T01450019  RH  042%=      5-min Rain = 0
KSP2 171926Z 35013KT 14/02 A3013 RMK A01 T01440019  RH  043%=      5-min Rain = 0
KSP2 171927Z 36010KT 14/02 A3013 RMK A01 T01440018  RH  043%=      5-min Rain = 0
KSP2 171928Z 00013KT 14/02 A3013 RMK A01 T01440021  RH  043%=      5-min Rain = 0
KSP2 171929Z 35011KT 15/02 A3013 RMK A01 T01460019  RH  042%=      5-min Rain = 0
KSP2 171930Z 35010G15KT 15/02 A3012 RMK A01 T01460020  RH  042%=      5-min Rain = 0
KSP2 171931Z 01013KT 15/02 A3012 RMK A01 T01460019  RH  042%=      5-min Rain = 0
KSP2 171932Z 01008KT 15/02 A3012 RMK A01 T01450018  RH  042%=      5-min Rain = 0
KSP2 171933Z 36014KT 15/02 A3012 RMK A01 T01460020  RH  043%=      5-min Rain = 0
KSP2 171934Z 00014KT 15/02 A3012 RMK A01 T01480017  RH  041%=      5-min Rain = 0
KSP2 171935Z 00013KT 15/02 A3012 RMK A01 T01470016  RH  041%=      5-min Rain = 0
KSP2 171936Z 00013KT 15/02 A3012 RMK A01 T01450016  RH  042%=      5-min Rain = 0
KSP2 171937Z 00013KT 15/02 A3012 RMK A01 T01460018  RH  042%=      5-min Rain = 0
KSP2 171938Z 00012KT 15/02 A3012 RMK A01 T01480018  RH  041%=      5-min Rain = 0
KSP2 171939Z 01011KT 15/02 A3012 RMK A01 T01460017  RH  042%=      5-min Rain = 0
KSP2 171940Z 01009KT 15/02 A3012 RMK A01 T01450019  RH  042%=      5-min Rain = 0
KSP2 171941Z 00008KT 15/02 A3012 RMK A01 T01460018  RH  042%=      5-min Rain = 0
KSP2 171942Z 02010KT 15/02 A3012 RMK A01 T01460017  RH  042%=      5-min Rain = 0
KSP2 171943Z 02013KT 15/02 A3012 RMK A01 T01460016  RH  041%=      5-min Rain = 0
KSP2 171944Z 02013KT 15/02 A3012 RMK A01 T01470016  RH  041%=      5-min Rain = 0
KSP2 171945Z 01012KT 15/02 A3012 RMK A01 T01470016  RH  041%=      5-min Rain = 0
KSP2 171946Z 01012KT 15/01 A3012 RMK A01 T01470014  RH  040%=      5-min Rain = 0
KSP2 171947Z 02008KT 15/01 A3012 RMK A01 T01470014  RH  041%=      5-min Rain = 0
KSP2 171948Z 03010KT 15/02 A3012 RMK A01 T01500016  RH  040%=      5-min Rain = 0
KSP2 171949Z 03010KT 15/02 A3012 RMK A01 T01510016  RH  040%=      5-min Rain = 0
KSP2 171950Z 01006KT 15/02 A3012 RMK A01 T01480016  RH  041%=      5-min Rain = 0
KSP2 171951Z 00005KT 15/02 A3012 RMK A01 T01490019  RH  041%=      5-min Rain = 0
KSP2 171952Z 34006KT 15/02 A3012 RMK A01 T01540020  RH  040%=      5-min Rain = 0
KSP2 171953Z 35009KT 16/02 A3012 RMK A01 T01560019  RH  039%=      5-min Rain = 0
KSP2 171954Z 35007KT 15/02 A3012 RMK A01 T01540017  RH  039%=      5-min Rain = 0
KSP2 171955Z 35006KT 15/02 A3012 RMK A01 T01530017  RH  040%=      5-min Rain = 0
KSP2 171956Z 35007KT 15/02 A3012 RMK A01 T01510016  RH  040%=      5-min Rain = 0
KSP2 171957Z 34008KT 15/02 A3011 RMK A01 T01500017  RH  040%=      5-min Rain = 0
KSP2 171958Z 35007KT 15/02 A3011 RMK A01 T01500016  RH  040%=      5-min Rain = 0
KSP2 171959Z 35009KT 15/02 A3011 RMK A01 T01500015  RH  040%=      5-min Rain = 0
KSP2 172000Z 35010KT 15/01 A3011 RMK A01 T01500014  RH  040%=      5-min Rain = 0
KSP2 172001Z 02013KT 15/01 A3011 RMK A01 T01520014  RH  039%=      5-min Rain = 0
KSP2 172002Z 02013KT 15/01 A3011 RMK A01 T01510012  RH  039%=      5-min Rain = 0
KSP2 172003Z 02010KT 15/01 A3011 RMK A01 T01490011  RH  039%=      5-min Rain = 0
KSP2 172004Z 02007KT 15/01 A3011 RMK A01 T01480012  RH  040%=      5-min Rain = 0
KSP2 172005Z 03008KT 15/02 A3011 RMK A01 T01510015  RH  040%=      5-min Rain = 0
KSP2 172006Z 03008KT 15/01 A3011 RMK A01 T01530014  RH  039%=      5-min Rain = 0
KSP2 172007Z 04006KT 15/01 A3011 RMK A01 T01540014  RH  039%=      5-min Rain = 0
KSP2 172008Z 04005KT 15/01 A3011 RMK A01 T01530013  RH  039%=      5-min Rain = 0
KSP2 172009Z 02008G13KT 15/02 A3011 RMK A01 T01530015  RH  039%=      5-min Rain = 0
KSP2 172010Z 36010KT 15/01 A3011 RMK A01 T01540011  RH  038%=      5-min Rain = 0
KSP2 172011Z 01010KT 15/01 A3011 RMK A01 T01540010  RH  038%=      5-min Rain = 0
KSP2 172012Z 02009KT 15/01 A3011 RMK A01 T01530010  RH  038%=      5-min Rain = 0
KSP2 172013Z 02007KT 15/01 A3011 RMK A01 T01530011  RH  038%=      5-min Rain = 0
KSP2 172014Z 36007KT 15/01 A3011 RMK A01 T01530010  RH  038%=      5-min Rain = 0
KSP2 172015Z 35008KT 15/01 A3011 RMK A01 T01520010  RH  038%=      5-min Rain = 0
KSP2 172016Z 34006KT 15/01 A3011 RMK A01 T01520010  RH  038%=      5-min Rain = 0
KSP2 172017Z 35005KT 15/01 A3011 RMK A01 T01510011  RH  038%=      5-min Rain = 0
KSP2 172018Z 02006KT 15/01 A3011 RMK A01 T01530012  RH  038%=      5-min Rain = 0
KSP2 172019Z 00009KT 15/01 A3011 RMK A01 T01540012  RH  038%=      5-min Rain = 0
KSP2 172020Z 00010KT 15/01 A3011 RMK A01 T01540010  RH  038%=      5-min Rain = 0
KSP2 172021Z 35011KT 15/01 A3011 RMK A01 T01530012  RH  038%=      5-min Rain = 0
KSP2 172022Z 01011KT 15/01 A3011 RMK A01 T01540013  RH  038%=      5-min Rain = 0
KSP2 172023Z 01009KT 15/01 A3011 RMK A01 T01540011  RH  038%=      5-min Rain = 0
KSP2 172024Z 01008KT 15/01 A3011 RMK A01 T01510010  RH  038%=      5-min Rain = 0
KSP2 172025Z 35007KT 15/01 A3011 RMK A01 T01500011  RH  039%=      5-min Rain = 0
KSP2 172026Z 36005KT 15/01 A301 RMK A01 T01490009  RH  039%=      5-min Rain = 0
KSP2 172027Z 01002KT 15/01 A301 RMK A01 T01470010  RH  039%=      5-min Rain = 0
KSP2 172028Z 00001KT 15/01 A301 RMK A01 T01470009  RH  039%=      5-min Rain = 0
KSP2 172029Z 05003KT 15/01 A301 RMK A01 T01470011  RH  040%=      5-min Rain = 0
KSP2 172030Z 02004KT 15/01 A301 RMK A01 T01500013  RH  039%=      5-min Rain = 0
KSP2 172031Z 01005KT 15/01 A301 RMK A01 T01510011  RH  039%=      5-min Rain = 0
KSP2 172032Z 35009KT 15/01 A301 RMK A01 T01510011  RH  039%=      5-min Rain = 0
KSP2 172033Z 34008KT 15/01 A301 RMK A01 T01530012  RH  038%=      5-min Rain = 0
KSP2 172034Z 35009KT 16/01 A301 RMK A01 T01560013  RH  038%=      5-min Rain = 0
KSP2 172035Z 35008KT 16/01 A301 RMK A01 T01570011  RH  037%=      5-min Rain = 0
KSP2 172036Z 34010KT 16/01 A301 RMK A01 T01560011  RH  037%=      5-min Rain = 0
KSP2 172037Z 34008KT 15/01 A301 RMK A01 T01540010  RH  038%=      5-min Rain = 0
KSP2 172038Z 35008KT 15/01 A301 RMK A01 T01520010  RH  038%=      5-min Rain = 0
KSP2 172039Z 36006KT 15/01 A301 RMK A01 T01520011  RH  038%=      5-min Rain = 0
KSP2 172040Z 01005KT 16/01 A301 RMK A01 T01550013  RH  038%=      5-min Rain = 0
KSP2 172041Z 34006KT 16/01 A3009 RMK A01 T01570011  RH  037%=      5-min Rain = 0
KSP2 172042Z 00007KT 16/01 A3009 RMK A01 T01570011  RH  037%=      5-min Rain = 0
KSP2 172043Z 00010KT 16/01 A3009 RMK A01 T01580011  RH  037%=      5-min Rain = 0
KSP2 172044Z 01010KT 16/01 A3009 RMK A01 T01560008  RH  036%=      5-min Rain = 0
KSP2 172045Z 01010KT 15/01 A3009 RMK A01 T01540009  RH  037%=      5-min Rain = 0
KSP2 172046Z 01008KT 15/01 A3009 RMK A01 T01540007  RH  037%=      5-min Rain = 0
KSP2 172047Z 00007KT 15/01 A3009 RMK A01 T01520008  RH  037%=      5-min Rain = 0
KSP2 172048Z 35007KT 15/01 A3009 RMK A01 T01520009  RH  038%=      5-min Rain = 0
KSP2 172049Z 00006KT 15/01 A3009 RMK A01 T01540011  RH  038%=      5-min Rain = 0
KSP2 172050Z 01006KT 16/01 A3009 RMK A01 T01560011  RH  037%=      5-min Rain = 0
KSP2 172051Z 02007KT 16/01 A3009 RMK A01 T01580011  RH  037%=      5-min Rain = 0
KSP2 172052Z 01008KT 16/01 A3009 RMK A01 T01580010  RH  037%=      5-min Rain = 0
KSP2 172053Z 01008KT 16/01 A3009 RMK A01 T01560010  RH  037%=      5-min Rain = 0
KSP2 172054Z 03004KT 15/01 A3009 RMK A01 T01540010  RH  038%=      5-min Rain = 0
KSP2 172055Z 36003KT 15/01 A3009 RMK A01 T01530010  RH  038%=      5-min Rain = 0
KSP2 172056Z 35006KT 15/01 A3009 RMK A01 T01530010  RH  038%=      5-min Rain = 0
KSP2 172057Z 34006KT 15/01 A3009 RMK A01 T01530010  RH  038%=      5-min Rain = 0
KSP2 172058Z 32005KT 15/01 A3009 RMK A01 T01530011  RH  038%=      5-min Rain = 0
KSP2 172059Z 34009KT 15/01 A3009 RMK A01 T01540010  RH  038%=      5-min Rain = 0
KSP2 172100Z 35010KT 16/01 A3009 RMK A01 T01550011  RH  037%=      5-min Rain = 0
KSP2 172101Z 35010KT 16/01 A3009 RMK A01 T01550011  RH  038%=      5-min Rain = 0
KSP2 172102Z 34008KT 15/01 A3009 RMK A01 T01530010  RH  038%=      5-min Rain = 0
KSP2 172103Z 34007KT 15/01 A3009 RMK A01 T01530011  RH  038%=      5-min Rain = 0
KSP2 172104Z 32008KT 16/01 A3009 RMK A01 T01560011  RH  037%=      5-min Rain = 0
KSP2 172105Z 33009KT 16/01 A3009 RMK A01 T01560009  RH  037%=      5-min Rain = 0
KSP2 172106Z 34007KT 16/01 A3009 RMK A01 T01550008  RH  037%=      5-min Rain = 0
KSP2 172107Z 33007KT 15/01 A3009 RMK A01 T01540008  RH  037%=      5-min Rain = 0
KSP2 172108Z 32007KT 16/01 A3009 RMK A01 T01550009  RH  037%=      5-min Rain = 0
KSP2 172109Z 33008KT 15/01 A3009 RMK A01 T01540009  RH  037%=      5-min Rain = 0
KSP2 172110Z 35007KT 15/01 A3009 RMK A01 T01540008  RH  037%=      5-min Rain = 0
KSP2 172111Z 34006KT 15/01 A3009 RMK A01 T01530007  RH  037%=      5-min Rain = 0
KSP2 172112Z 31005KT 15/01 A3009 RMK A01 T01520007  RH  037%=      5-min Rain = 0
KSP2 172113Z 32006KT 15/01 A3009 RMK A01 T01520007  RH  037%=      5-min Rain = 0
KSP2 172114Z 34005KT 15/01 A3009 RMK A01 T01520007  RH  037%=      5-min Rain = 0
KSP2 172115Z 00007KT 15/01 A3009 RMK A01 T01520008  RH  037%=      5-min Rain = 0
KSP2 172116Z 00009KT 16/01 A3009 RMK A01 T01550009  RH  037%=      5-min Rain = 0
KSP2 172117Z 01007KT 16/01 A3009 RMK A01 T01580010  RH  037%=      5-min Rain = 0
KSP2 172118Z 02008KT 16/01 A3009 RMK A01 T01580008  RH  036%=      5-min Rain = 0
KSP2 172119Z 36007KT 16/01 A3009 RMK A01 T01570008  RH  036%=      5-min Rain = 0
KSP2 172120Z 02006KT 16/01 A3009 RMK A01 T01570009  RH  037%=      5-min Rain = 0
KSP2 172121Z 02007KT 16/01 A3009 RMK A01 T01580009  RH  036%=      5-min Rain = 0
KSP2 172122Z 01007KT 16/01 A3009 RMK A01 T01570009  RH  037%=      5-min Rain = 0
KSP2 172123Z 01009KT 16/01 A3009 RMK A01 T01560009  RH  037%=      5-min Rain = 0
KSP2 172124Z 01007KT 16/01 A3009 RMK A01 T01550008  RH  037%=      5-min Rain = 0
KSP2 172125Z 03006KT 16/01 A3009 RMK A01 T01550008  RH  037%=      5-min Rain = 0
KSP2 172126Z 01007KT 15/01 A3009 RMK A01 T01530007  RH  037%=      5-min Rain = 0
KSP2 172127Z 01007KT 15/01 A3008 RMK A01 T01530006  RH  037%=      5-min Rain = 0
KSP2 172128Z 36006KT 15/01 A3008 RMK A01 T01540005  RH  036%=      5-min Rain = 0
KSP2 172129Z 34005KT 15/01 A3009 RMK A01 T01540006  RH  036%=      5-min Rain = 0
KSP2 172130Z 33008KT 16/01 A3008 RMK A01 T01570007  RH  036%=      5-min Rain = 0
KSP2 172131Z 32006KT 16/01 A3008 RMK A01 T01570005  RH  035%=      5-min Rain = 0
KSP2 172132Z 33006KT 16/01 A3008 RMK A01 T01580006  RH  036%=      5-min Rain = 0
KSP2 172133Z 34007KT 16/01 A3008 RMK A01 T01580007  RH  036%=      5-min Rain = 0
KSP2 172134Z 01006KT 16/01 A3008 RMK A01 T01580007  RH  036%=      5-min Rain = 0
KSP2 172135Z 01006KT 16/01 A3008 RMK A01 T01570007  RH  036%=      5-min Rain = 0
KSP2 172136Z 36004KT 16/01 A3008 RMK A01 T01560007  RH  036%=      5-min Rain = 0
KSP2 172137Z 01007KT 16/01 A3008 RMK A01 T01560007  RH  036%=      5-min Rain = 0
KSP2 172138Z 02005KT 16/01 A3008 RMK A01 T01560007  RH  036%=      5-min Rain = 0
KSP2 172139Z 01007KT 16/01 A3009 RMK A01 T01560007  RH  036%=      5-min Rain = 0
KSP2 172140Z 01006KT 16/01 A3009 RMK A01 T01550006  RH  036%=      5-min Rain = 0
KSP2 172141Z 02004KT 15/01 A3009 RMK A01 T01520005  RH  037%=      5-min Rain = 0
KSP2 172142Z 02004KT 15/01 A3009 RMK A01 T01510006  RH  037%=      5-min Rain = 0
KSP2 172143Z 35005G10KT 15/01 A3009 RMK A01 T01520007  RH  037%=      5-min Rain = 0
KSP2 172144Z 34009KT 15/01 A3009 RMK A01 T01540005  RH  036%=      5-min Rain = 0
KSP2 172145Z 02009G15KT 15/01 A3008 RMK A01 T01540005  RH  036%=      5-min Rain = 0
KSP2 172146Z 36007KT 15/01 A3009 RMK A01 T01540006  RH  037%=      5-min Rain = 0
KSP2 172147Z 01006KT 15/01 A3009 RMK A01 T01530006  RH  037%=      5-min Rain = 0
KSP2 172148Z 01007KT 15/00 A3009 RMK A01 T01530004  RH  036%=      5-min Rain = 0
KSP2 172149Z 02007KT 15/00 A3009 RMK A01 T01530004  RH  036%=      5-min Rain = 0
KSP2 172150Z 03004KT 15/00 A3009 RMK A01 T01520004  RH  036%=      5-min Rain = 0
KSP2 172151Z 01003KT 15/01 A3009 RMK A01 T01520005  RH  037%=      5-min Rain = 0
KSP2 172152Z 34004KT 15/01 A3009 RMK A01 T01530006  RH  037%=      5-min Rain = 0
KSP2 172153Z 34005KT 15/01 A3009 RMK A01 T01540005  RH  036%=      5-min Rain = 0
KSP2 172154Z 34002KT 16/01 A3009 RMK A01 T01550005  RH  036%=      5-min Rain = 0
KSP2 172155Z 01003KT 15/01 A3009 RMK A01 T01540005  RH  036%=      5-min Rain = 0
KSP2 172156Z 02005KT 16/01 A3009 RMK A01 T01550006  RH  036%=      5-min Rain = 0
KSP2 172157Z 02005KT 16/00 A3009 RMK A01 T01560003  RH  035%=      5-min Rain = 0
KSP2 172158Z 03004KT 16/00 A3009 RMK A01 T01560002  RH  035%=      5-min Rain = 0
KSP2 172159Z 03004KT 16/00 A3009 RMK A01 T01550001  RH  035%=      5-min Rain = 0
KSP2 172200Z 01008KT 15/00 A3008 RMK A01 T015400-0  RH  035%=      5-min Rain = 0
KSP2 172201Z 02007KT 16/00 A3008 RMK A01 T01550002  RH  035%=      5-min Rain = 0
KSP2 172202Z 00008KT 15/00 A3008 RMK A01 T01540001  RH  035%=      5-min Rain = 0
KSP2 172203Z 01006KT 15/00 A3008 RMK A01 T01540002  RH  035%=      5-min Rain = 0
KSP2 172204Z 01006KT 16/00 A3008 RMK A01 T01550003  RH  036%=      5-min Rain = 0
KSP2 172205Z 02006KT 16/00 A3008 RMK A01 T01550002  RH  035%=      5-min Rain = 0
KSP2 172206Z 35006KT 16/00 A3008 RMK A01 T01550002  RH  035%=      5-min Rain = 0
KSP2 172207Z 34006KT 15/00 A3008 RMK A01 T01540001  RH  035%=      5-min Rain = 0
KSP2 172208Z 33004KT 15/00 A3008 RMK A01 T01530001  RH  035%=      5-min Rain = 0
KSP2 172209Z 34004KT 15/00 A3008 RMK A01 T01530002  RH  036%=      5-min Rain = 0
KSP2 172210Z 35003KT 15/00 A3008 RMK A01 T01530002  RH  036%=      5-min Rain = 0
KSP2 172211Z 01003KT 15/00 A3008 RMK A01 T01530003  RH  036%=      5-min Rain = 0
KSP2 172212Z 03003KT 15/00 A3008 RMK A01 T01540003  RH  036%=      5-min Rain = 0
KSP2 172213Z 01004KT 16/00 A3008 RMK A01 T01550004  RH  036%=      5-min Rain = 0
KSP2 172214Z 35004KT 16/00 A3008 RMK A01 T01560004  RH  036%=      5-min Rain = 0
KSP2 172215Z 01003KT 16/00 A3008 RMK A01 T01560004  RH  036%=      5-min Rain = 0
KSP2 172216Z 35004KT 16/00 A3008 RMK A01 T01550004  RH  036%=      5-min Rain = 0
KSP2 172217Z 02005KT 16/00 A3008 RMK A01 T01560003  RH  035%=      5-min Rain = 0
KSP2 172218Z 01003KT 15/00 A3008 RMK A01 T01540002  RH  036%=      5-min Rain = 0
KSP2 172219Z 33004KT 15/00 A3008 RMK A01 T01520004  RH  036%=      5-min Rain = 0
KSP2 172220Z 32004KT 15/00 A3008 RMK A01 T01530003  RH  036%=      5-min Rain = 0
KSP2 172221Z 31005KT 15/00 A3008 RMK A01 T01530004  RH  036%=      5-min Rain = 0
KSP2 172222Z 31004KT 15/01 A3008 RMK A01 T01520005  RH  037%=      5-min Rain = 0
KSP2 172223Z 32003KT 15/01 A3008 RMK A01 T01510005  RH  037%=      5-min Rain = 0
KSP2 172224Z 32003KT 15/01 A3008 RMK A01 T01510005  RH  037%=      5-min Rain = 0
KSP2 172225Z 32004KT 15/00 A3008 RMK A01 T01510004  RH  037%=      5-min Rain = 0
KSP2 172226Z 34006KT 15/01 A3009 RMK A01 T01510005  RH  037%=      5-min Rain = 0
KSP2 172227Z 33006KT 15/01 A3009 RMK A01 T01520005  RH  037%=      5-min Rain = 0
KSP2 172228Z 36007KT 15/01 A3009 RMK A01 T01510005  RH  037%=      5-min Rain = 0
KSP2 172229Z 36006KT 15/01 A3009 RMK A01 T01510005  RH  037%=      5-min Rain = 0
KSP2 172230Z 36004KT 15/01 A3009 RMK A01 T01510005  RH  037%=      5-min Rain = 0
KSP2 172231Z 36004KT 15/01 A3009 RMK A01 T01500005  RH  037%=      5-min Rain = 0
KSP2 172232Z 02006KT 15/01 A3009 RMK A01 T01510006  RH  037%=      5-min Rain = 0
KSP2 172233Z 02005KT 15/01 A3009 RMK A01 T01510006  RH  037%=      5-min Rain = 0
KSP2 172234Z 02004KT 15/01 A3009 RMK A01 T01510005  RH  037%=      5-min Rain = 0
KSP2 172235Z 02003KT 15/01 A3009 RMK A01 T01500006  RH  037%=      5-min Rain = 0
KSP2 172236Z 02004KT 15/01 A3009 RMK A01 T01500006  RH  037%=      5-min Rain = 0
KSP2 172237Z 01003KT 15/01 A3009 RMK A01 T01500006  RH  038%=      5-min Rain = 0
KSP2 172238Z 00003KT 15/01 A3009 RMK A01 T01500006  RH  038%=      5-min Rain = 0
KSP2 172239Z 36003KT 15/01 A3009 RMK A01 T01490006  RH  038%=      5-min Rain = 0
KSP2 172240Z 34004KT 15/01 A3009 RMK A01 T01490006  RH  038%=      5-min Rain = 0
KSP2 172241Z 33003KT 15/01 A3009 RMK A01 T01490005  RH  037%=      5-min Rain = 0
KSP2 172242Z 32003KT 15/01 A3009 RMK A01 T01480005  RH  038%=      5-min Rain = 0
KSP2 172243Z 33003KT 15/01 A3009 RMK A01 T01490005  RH  038%=      5-min Rain = 0
KSP2 172244Z 33004KT 15/01 A3009 RMK A01 T01490005  RH  038%=      5-min Rain = 0
KSP2 172245Z 33003KT 15/01 A3009 RMK A01 T01490005  RH  037%=      5-min Rain = 0
KSP2 172246Z 33004KT 15/01 A3009 RMK A01 T01490005  RH  037%=      5-min Rain = 0
KSP2 172247Z 34005KT 15/01 A3009 RMK A01 T01490005  RH  037%=      5-min Rain = 0
KSP2 172248Z 00005KT 15/00 A3009 RMK A01 T01490004  RH  037%=      5-min Rain = 0
KSP2 172249Z 35004KT 15/00 A3009 RMK A01 T01480004  RH  037%=      5-min Rain = 0
KSP2 172250Z 01004KT 15/00 A3009 RMK A01 T01470004  RH  037%=      5-min Rain = 0
KSP2 172251Z 36004KT 15/00 A3009 RMK A01 T01470004  RH  038%=      5-min Rain = 0
KSP2 172252Z 00004KT 15/00 A3009 RMK A01 T01470004  RH  038%=      5-min Rain = 0
KSP2 172253Z 01004KT 15/01 A3009 RMK A01 T01470005  RH  038%=      5-min Rain = 0
KSP2 172254Z 01003KT 15/00 A3009 RMK A01 T01460004  RH  038%=      5-min Rain = 0
KSP2 172255Z 35003KT 15/01 A3009 RMK A01 T01460005  RH  038%=      5-min Rain = 0
KSP2 172256Z 34003KT 15/01 A3009 RMK A01 T01460005  RH  038%=      5-min Rain = 0
KSP2 172257Z 35003KT 15/01 A3009 RMK A01 T01460005  RH  038%=      5-min Rain = 0
KSP2 172258Z 36003KT 15/01 A3009 RMK A01 T01460006  RH  038%=      5-min Rain = 0
KSP2 172259Z 35003KT 15/01 A3009 RMK A01 T01460006  RH  038%=      5-min Rain = 0
KSP2 172300Z 35003KT 15/01 A3009 RMK A01 T01450006  RH  039%=      5-min Rain = 0
KSP2 172301Z 00003KT 15/01 A3009 RMK A01 T01450006  RH  039%=      5-min Rain = 0
KSP2 172302Z 01002KT 14/01 A3009 RMK A01 T01440006  RH  039%=      5-min Rain = 0
KSP2 172303Z 36003KT 14/01 A3009 RMK A01 T01440006  RH  039%=      5-min Rain = 0
KSP2 172304Z 36004KT 14/01 A3009 RMK A01 T01440006  RH  039%=      5-min Rain = 0
KSP2 172305Z 35002KT 14/01 A3009 RMK A01 T01430006  RH  039%=      5-min Rain = 0
KSP2 172306Z 35002KT 14/01 A3009 RMK A01 T01430006  RH  039%=      5-min Rain = 0
KSP2 172307Z 35002KT 14/01 A301 RMK A01 T01430006  RH  039%=      5-min Rain = 0
KSP2 172308Z 35003KT 14/01 A301 RMK A01 T01430007  RH  039%=      5-min Rain = 0
KSP2 172309Z 35003KT 14/01 A301 RMK A01 T01420006  RH  040%=      5-min Rain = 0
KSP2 172310Z 35003KT 14/01 A301 RMK A01 T01410006  RH  040%=      5-min Rain = 0
KSP2 172311Z 35004KT 14/01 A301 RMK A01 T01400006  RH  040%=      5-min Rain = 0
KSP2 172312Z 36004KT 14/01 A301 RMK A01 T01400005  RH  040%=      5-min Rain = 0
KSP2 172313Z 36004KT 14/01 A301 RMK A01 T01390005  RH  040%=      5-min Rain = 0
KSP2 172314Z 36003KT 14/01 A3009 RMK A01 T01380005  RH  040%=      5-min Rain = 0
KSP2 172315Z 35004KT 14/01 A3009 RMK A01 T01370005  RH  040%=      5-min Rain = 0
KSP2 172316Z 35004KT 14/01 A3009 RMK A01 T01370005  RH  040%=      5-min Rain = 0
KSP2 172317Z 35004KT 14/01 A3009 RMK A01 T01360005  RH  041%=      5-min Rain = 0
KSP2 172318Z 35004KT 14/01 A3009 RMK A01 T01350005  RH  041%=      5-min Rain = 0
KSP2 172319Z 35003KT 13/00 A301 RMK A01 T01340004  RH  041%=      5-min Rain = 0
KSP2 172320Z 35003KT 13/00 A301 RMK A01 T01330004  RH  041%=      5-min Rain = 0
KSP2 172321Z 35003KT 13/00 A301 RMK A01 T01320004  RH  041%=      5-min Rain = 0
KSP2 172322Z 35002KT 13/00 A301 RMK A01 T01320004  RH  042%=      5-min Rain = 0
KSP2 172323Z 35003KT 13/01 A301 RMK A01 T01320005  RH  042%=      5-min Rain = 0
KSP2 172324Z 35002KT 13/00 A301 RMK A01 T01310004  RH  042%=      5-min Rain = 0
KSP2 172325Z 35002KT 13/01 A301 RMK A01 T01300005  RH  042%=      5-min Rain = 0
KSP2 172326Z 34002KT 13/01 A301 RMK A01 T01300005  RH  042%=      5-min Rain = 0
KSP2 172327Z 34002KT 13/01 A301 RMK A01 T01290005  RH  042%=      5-min Rain = 0
KSP2 172328Z 34002KT 13/01 A301 RMK A01 T01290005  RH  042%=      5-min Rain = 0
KSP2 172329Z 34002KT 13/01 A301 RMK A01 T01290005  RH  043%=      5-min Rain = 0
KSP2 172330Z 34001KT 13/01 A301 RMK A01 T01290005  RH  043%=      5-min Rain = 0
KSP2 172331Z 34002KT 13/01 A301 RMK A01 T01290006  RH  043%=      5-min Rain = 0
KSP2 172332Z 35002KT 13/01 A301 RMK A01 T01280005  RH  043%=      5-min Rain = 0
KSP2 172333Z 34002KT 13/00 A301 RMK A01 T01270004  RH  043%=      5-min Rain = 0
KSP2 172334Z 33002KT 13/01 A301 RMK A01 T01260005  RH  043%=      5-min Rain = 0
KSP2 172335Z 33002KT 13/00 A301 RMK A01 T01250004  RH  044%=      5-min Rain = 0
KSP2 172336Z 33002KT 12/00 A301 RMK A01 T01230003  RH  044%=      5-min Rain = 0
KSP2 172337Z 33002KT 12/00 A301 RMK A01 T01210003  RH  044%=      5-min Rain = 0
KSP2 172338Z 33002KT 12/00 A301 RMK A01 T01190002  RH  045%=      5-min Rain = 0
KSP2 172339Z 33001KT 12/00 A301 RMK A01 T01180002  RH  045%=      5-min Rain = 0
KSP2 172340Z 33001KT 12/00 A301 RMK A01 T01170002  RH  045%=      5-min Rain = 0
KSP2 172341Z 33001KT 12/00 A301 RMK A01 T01150001  RH  045%=      5-min Rain = 0
KSP2 172342Z 33001KT 11/00 A301 RMK A01 T01140001  RH  046%=      5-min Rain = 0
KSP2 172343Z 33001KT 11/00 A301 RMK A01 T01120002  RH  046%=      5-min Rain = 0
KSP2 172344Z 33001KT 11/00 A301 RMK A01 T01110002  RH  047%=      5-min Rain = 0
KSP2 172345Z 33001KT 11/00 A301 RMK A01 T01100002  RH  047%=      5-min Rain = 0
KSP2 172346Z 33001KT 11/00 A301 RMK A01 T01090002  RH  048%=      5-min Rain = 0
KSP2 172347Z 33001KT 11/00 A301 RMK A01 T01080003  RH  048%=      5-min Rain = 0
KSP2 172348Z 33001KT 11/00 A301 RMK A01 T01070003  RH  048%=      5-min Rain = 0
KSP2 172349Z 33001KT 11/00 A301 RMK A01 T01070002  RH  049%=      5-min Rain = 0
KSP2 172350Z 33001KT 11/00 A301 RMK A01 T01060003  RH  049%=      5-min Rain = 0
KSP2 172351Z 33001KT 11/00 A3009 RMK A01 T01060003  RH  049%=      5-min Rain = 0
KSP2 172352Z 33000KT 11/00 A3009 RMK A01 T01050003  RH  049%=      5-min Rain = 0
KSP2 172353Z 33000KT 11/00 A3009 RMK A01 T01050003  RH  049%=      5-min Rain = 0
KSP2 172354Z 00000KT 10/00 A3009 RMK A01 T01030002  RH  049%=      5-min Rain = 0
KSP2 172355Z 00000KT 10/00 A3009 RMK A01 T01010001  RH  050%=      5-min Rain = 0
KSP2 172356Z 00000KT 10/00 A3009 RMK A01 T00990001  RH  050%=      5-min Rain = 0
KSP2 172357Z 00000KT 10/00 A3009 RMK A01 T00980000  RH  050%=      5-min Rain = 0
KSP2 172358Z 00000KT 10/M00 A3009 RMK A01 T00961002  RH  050%=      5-min Rain = 0
KSP2 172359Z 00000KT 09/M01 A3009 RMK A01 T00931006  RH  050%=      5-min Rain = 0
KSP2 180000Z 00000KT 09/M01 A3009 RMK A01 T00901007  RH  051%=      5-min Rain = 0
KSP2 180001Z 00000KT 09/M01 A3009 RMK A01 T00881008  RH  051%=      5-min Rain = 0
KSP2 180002Z 00000KT 09/M01 A3009 RMK A01 T00851009  RH  052%=      5-min Rain = 0
KSP2 180003Z 00000KT 08/M01 A3009 RMK A01 T00841007  RH  053%=      5-min Rain = 0
KSP2 180004Z 00000KT 08/M01 A3009 RMK A01 T00831007  RH  053%=      5-min Rain = 0
KSP2 180005Z 00000KT 08/M01 A3009 RMK A01 T00811005  RH  055%=      5-min Rain = 0
KSP2 180006Z 00000KT 08/M01 A3009 RMK A01 T00801005  RH  055%=      5-min Rain = 0
KSP2 180007Z 00000KT 08/M01 A3009 RMK A01 T00791006  RH  055%=      5-min Rain = 0
KSP2 180008Z 00000KT 08/M01 A301 RMK A01 T00771006  RH  056%=      5-min Rain = 0
KSP2 180009Z 00000KT 08/M01 A301 RMK A01 T00751006  RH  056%=      5-min Rain = 0
KSP2 180010Z 00000KT 07/M01 A301 RMK A01 T00741007  RH  057%=      5-min Rain = 0
KSP2 180011Z 00000KT 07/M01 A301 RMK A01 T00731006  RH  057%=      5-min Rain = 0
KSP2 180012Z 00000KT 07/M01 A301 RMK A01 T00721008  RH  057%=      5-min Rain = 0
KSP2 180013Z 00000KT 07/M01 A301 RMK A01 T00711007  RH  057%=      5-min Rain = 0
KSP2 180014Z 00000KT 07/M01 A301 RMK A01 T00711006  RH  058%=      5-min Rain = 0
KSP2 180015Z 00000KT 07/M00 A301 RMK A01 T00711003  RH  059%=      5-min Rain = 0
KSP2 180016Z 00000KT 07/M00 A301 RMK A01 T00711004  RH  059%=      5-min Rain = 0
KSP2 180017Z 00000KT 07/M01 A301 RMK A01 T00711005  RH  058%=      5-min Rain = 0
KSP2 180018Z 00000KT 07/M00 A301 RMK A01 T00711004  RH  059%=      5-min Rain = 0
KSP2 180019Z 00000KT 07/M00 A301 RMK A01 T00711004  RH  059%=      5-min Rain = 0
KSP2 180020Z 00000KT 07/M00 A301 RMK A01 T00721003  RH  059%=      5-min Rain = 0
KSP2 180021Z 00000KT 07/M00 A301 RMK A01 T00721004  RH  058%=      5-min Rain = 0
KSP2 180022Z 00000KT 07/M00 A301 RMK A01 T00711002  RH  060%=      5-min Rain = 0
KSP2 180023Z 00000KT 07/M00 A301 RMK A01 T00711002  RH  059%=      5-min Rain = 0
KSP2 180024Z 00000KT 07/M01 A301 RMK A01 T00701005  RH  059%=      5-min Rain = 0
KSP2 180025Z 00000KT 07/M01 A301 RMK A01 T00661012  RH  057%=      5-min Rain = 0
KSP2 180026Z 00000KT 06/M01 A301 RMK A01 T00641012  RH  058%=      5-min Rain = 0
KSP2 180027Z 00000KT 06/M01 A301 RMK A01 T00631008  RH  060%=      5-min Rain = 0
KSP2 180028Z 00000KT 06/M01 A301 RMK A01 T00601009  RH  061%=      5-min Rain = 0
KSP2 180029Z 00000KT 06/M01 A301 RMK A01 T00591007  RH  063%=      5-min Rain = 0
KSP2 180030Z 00000KT 06/M00 A301 RMK A01 T00601004  RH  063%=      5-min Rain = 0
KSP2 180031Z 00000KT 06/M00 A301 RMK A01 T00621003  RH  063%=      5-min Rain = 0
KSP2 180032Z 00000KT 06/M00 A301 RMK A01 T00621004  RH  063%=      5-min Rain = 0
KSP2 180033Z 00000KT 06/M01 A301 RMK A01 T00621006  RH  062%=      5-min Rain = 0
KSP2 180034Z 00000KT 06/M01 A301 RMK A01 T00601008  RH  062%=      5-min Rain = 0
KSP2 180035Z 00000KT 06/M01 A301 RMK A01 T00591012  RH  060%=      5-min Rain = 0
KSP2 180036Z 00000KT 06/M01 A301 RMK A01 T00571011  RH  061%=      5-min Rain = 0
KSP2 180037Z 00000KT 06/M01 A301 RMK A01 T00571008  RH  063%=      5-min Rain = 0
KSP2 180038Z 00000KT 06/M01 A3011 RMK A01 T00551007  RH  064%=      5-min Rain = 0
KSP2 180039Z 00000KT 06/M01 A3011 RMK A01 T00551007  RH  064%=      5-min Rain = 0
KSP2 180040Z 00000KT 05/M01 A3011 RMK A01 T00531009  RH  064%=      5-min Rain = 0
KSP2 180041Z 00000KT 05/M01 A3011 RMK A01 T00521008  RH  065%=      5-min Rain = 0
KSP2 180042Z 00000KT 05/M01 A3011 RMK A01 T00511008  RH  066%=      5-min Rain = 0
KSP2 180043Z 00000KT 05/M01 A3011 RMK A01 T00491008  RH  066%=      5-min Rain = 0
KSP2 180044Z 00000KT 05/M01 A301 RMK A01 T00481007  RH  068%=      5-min Rain = 0
KSP2 180045Z 00000KT 05/M01 A301 RMK A01 T00471006  RH  069%=      5-min Rain = 0
KSP2 180046Z 23000KT 05/M01 A301 RMK A01 T00471005  RH  069%=      5-min Rain = 0
KSP2 180047Z 23002KT 05/M00 A301 RMK A01 T00471004  RH  070%=      5-min Rain = 0
KSP2 180048Z 23002KT 05/M00 A301 RMK A01 T00481003  RH  069%=      5-min Rain = 0
KSP2 180049Z 23002KT 05/M00 A301 RMK A01 T00501002  RH  069%=      5-min Rain = 0
KSP2 180050Z 23002KT 05/M00 A301 RMK A01 T00521002  RH  068%=      5-min Rain = 0
KSP2 180051Z 23002KT 05/M00 A301 RMK A01 T00531002  RH  068%=      5-min Rain = 0
KSP2 180052Z 23002KT 05/M00 A301 RMK A01 T00531003  RH  067%=      5-min Rain = 0
KSP2 180053Z 23002KT 05/M00 A301 RMK A01 T00521003  RH  067%=      5-min Rain = 0
KSP2 180054Z 23002KT 05/M00 A301 RMK A01 T00511002  RH  068%=      5-min Rain = 0
KSP2 180055Z 23002KT 05/M00 A301 RMK A01 T00511002  RH  069%=      5-min Rain = 0
KSP2 180056Z 23002KT 05/M00 A301 RMK A01 T00501002  RH  069%=      5-min Rain = 0
KSP2 180057Z 23002KT 05/M00 A301 RMK A01 T00491004  RH  069%=      5-min Rain = 0
KSP2 180058Z 23002KT 05/M00 A301 RMK A01 T00481004  RH  069%=      5-min Rain = 0
KSP2 180059Z 23002KT 05/M00 A301 RMK A01 T00471004  RH  069%=      5-min Rain = 0
KSP2 180100Z 23002KT 05/M00 A301 RMK A01 T00461004  RH  070%=      5-min Rain = 0
KSP2 180101Z 23002KT 05/M00 A301 RMK A01 T00451004  RH  070%=      5-min Rain = 0
KSP2 180102Z 24002KT 04/M01 A301 RMK A01 T00441005  RH  070%=      5-min Rain = 0
KSP2 180103Z 24002KT 04/M01 A301 RMK A01 T00431005  RH  071%=      5-min Rain = 0
KSP2 180104Z 24002KT 04/M01 A301 RMK A01 T00421005  RH  071%=      5-min Rain = 0
KSP2 180105Z 24002KT 04/M01 A301 RMK A01 T00421005  RH  072%=      5-min Rain = 0
KSP2 180106Z 24003KT 04/M01 A301 RMK A01 T00421005  RH  072%=      5-min Rain = 0
KSP2 180107Z 24003KT 04/M01 A301 RMK A01 T00411006  RH  071%=      5-min Rain = 0
KSP2 180108Z 24002KT 04/M01 A301 RMK A01 T00411007  RH  071%=      5-min Rain = 0
KSP2 180109Z 24002KT 04/M01 A301 RMK A01 T00401007  RH  072%=      5-min Rain = 0
KSP2 180110Z 24002KT 04/M01 A301 RMK A01 T00401006  RH  072%=      5-min Rain = 0
KSP2 180111Z 24002KT 04/M01 A301 RMK A01 T00411007  RH  071%=      5-min Rain = 0
KSP2 180112Z 25002KT 04/M01 A301 RMK A01 T00421008  RH  070%=      5-min Rain = 0
KSP2 180113Z 25002KT 04/M01 A301 RMK A01 T00421006  RH  071%=      5-min Rain = 0
KSP2 180114Z 25002KT 04/M00 A301 RMK A01 T00421003  RH  072%=      5-min Rain = 0
KSP2 180115Z 25002KT 04/M00 A301 RMK A01 T00421001  RH  073%=      5-min Rain = 0
KSP2 180116Z 25002KT 04/M00 A301 RMK A01 T00421001  RH  073%=      5-min Rain = 0
KSP2 180117Z 25001KT 04/00 A3011 RMK A01 T00430000  RH  074%=      5-min Rain = 0
KSP2 180118Z 25001KT 04/00 A301 RMK A01 T004400-0  RH  073%=      5-min Rain = 0
KSP2 180119Z 25001KT 04/M00 A301 RMK A01 T00441001  RH  073%=      5-min Rain = 0
KSP2 180120Z 25001KT 05/M00 A301 RMK A01 T00451001  RH  072%=      5-min Rain = 0
KSP2 180121Z 25001KT 05/M00 A301 RMK A01 T00451002  RH  071%=      5-min Rain = 0
KSP2 180122Z 25001KT 04/M00 A3011 RMK A01 T00441004  RH  071%=      5-min Rain = 0
KSP2 180123Z 25001KT 04/M01 A3011 RMK A01 T00431005  RH  071%=      5-min Rain = 0
KSP2 180124Z 25001KT 04/M01 A3011 RMK A01 T00411007  RH  071%=      5-min Rain = 0
KSP2 180125Z 25001KT 04/M01 A3011 RMK A01 T00391008  RH  071%=      5-min Rain = 0
KSP2 180126Z 25001KT 04/M01 A3011 RMK A01 T00371011  RH  071%=      5-min Rain = 0
KSP2 180127Z 25001KT 04/M01 A3011 RMK A01 T00351013  RH  071%=      5-min Rain = 0
KSP2 180128Z 25002KT 03/M01 A301 RMK A01 T00341011  RH  072%=      5-min Rain = 0
KSP2 180129Z 25002KT 03/M01 A3011 RMK A01 T00341010  RH  073%=      5-min Rain = 0
KSP2 180130Z 25002KT 03/M01 A3011 RMK A01 T00341010  RH  073%=      5-min Rain = 0
KSP2 180131Z 25002KT 03/M01 A3011 RMK A01 T00341010  RH  073%=      5-min Rain = 0
KSP2 180132Z 25002KT 03/M01 A3011 RMK A01 T00341010  RH  073%=      5-min Rain = 0
KSP2 180133Z 25002KT 03/M01 A3011 RMK A01 T00341010  RH  073%=      5-min Rain = 0
KSP2 180134Z 25002KT 03/M01 A3011 RMK A01 T00341009  RH  074%=      5-min Rain = 0
KSP2 180135Z 25001KT 04/M01 A3011 RMK A01 T00351006  RH  075%=      5-min Rain = 0
KSP2 180136Z 25001KT 04/M01 A3011 RMK A01 T00351006  RH  074%=      5-min Rain = 0
KSP2 180137Z 25001KT 04/M01 A3011 RMK A01 T00351006  RH  074%=      5-min Rain = 0
KSP2 180138Z 26002KT 04/M01 A3011 RMK A01 T00361007  RH  074%=      5-min Rain = 0
KSP2 180139Z 27002KT 04/M01 A3011 RMK A01 T00351010  RH  073%=      5-min Rain = 0
KSP2 180140Z 27002KT 03/M01 A3011 RMK A01 T00341012  RH  072%=      5-min Rain = 0
KSP2 180141Z 28002KT 03/M01 A3011 RMK A01 T00331012  RH  072%=      5-min Rain = 0
KSP2 180142Z 28002KT 03/M01 A3011 RMK A01 T00321010  RH  074%=      5-min Rain = 0
KSP2 180143Z 28002KT 03/M01 A3011 RMK A01 T00321009  RH  075%=      5-min Rain = 0
KSP2 180144Z 28002KT 03/M01 A3011 RMK A01 T00321008  RH  075%=      5-min Rain = 0
KSP2 180145Z 28002KT 03/M01 A3011 RMK A01 T00311010  RH  075%=      5-min Rain = 0
KSP2 180146Z 28002KT 03/M01 A3011 RMK A01 T00311009  RH  075%=      5-min Rain = 0
KSP2 180147Z 28002KT 03/M01 A3011 RMK A01 T00311008  RH  076%=      5-min Rain = 0
KSP2 180148Z 28002KT 03/M01 A3011 RMK A01 T00321008  RH  075%=      5-min Rain = 0
KSP2 180149Z 28002KT 03/M01 A3011 RMK A01 T00321010  RH  074%=      5-min Rain = 0
KSP2 180150Z 27002KT 03/M01 A3011 RMK A01 T00321013  RH  073%=      5-min Rain = 0
KSP2 180151Z 26003KT 03/M02 A3011 RMK A01 T00301015  RH  072%=      5-min Rain = 0
KSP2 180152Z 26002KT 03/M02 A3011 RMK A01 T00291016  RH  072%=      5-min Rain = 0
KSP2 180153Z 26002KT 03/M02 A3011 RMK A01 T00281015  RH  073%=      5-min Rain = 0
KSP2 180154Z 27003KT 03/M01 A3011 RMK A01 T00281014  RH  074%=      5-min Rain = 0
KSP2 180155Z 26003KT 03/M02 A3011 RMK A01 T00271016  RH  073%=      5-min Rain = 0
KSP2 180156Z 27003KT 03/M02 A3011 RMK A01 T00261015  RH  075%=      5-min Rain = 0
KSP2 180157Z 27003KT 03/M01 A3011 RMK A01 T00271011  RH  076%=      5-min Rain = 0
KSP2 180158Z 28003KT 03/M01 A3011 RMK A01 T00301008  RH  076%=      5-min Rain = 0
KSP2 180159Z 28003KT 03/M01 A3011 RMK A01 T00321008  RH  075%=      5-min Rain = 0
KSP2 180200Z 28003KT 03/M01 A3011 RMK A01 T00341007  RH  075%=      5-min Rain = 0
KSP2 180201Z 27002KT 04/M01 A3011 RMK A01 T00361007  RH  074%=      5-min Rain = 0
KSP2 180202Z 27003KT 04/M01 A3011 RMK A01 T00371009  RH  072%=      5-min Rain = 0
KSP2 180203Z 26003KT 04/M01 A3011 RMK A01 T00381009  RH  071%=      5-min Rain = 0
KSP2 180204Z 27003KT 04/M01 A3012 RMK A01 T00371010  RH  071%=      5-min Rain = 0
KSP2 180205Z 27003KT 04/M01 A3012 RMK A01 T00361010  RH  071%=      5-min Rain = 0
KSP2 180206Z 26002KT 04/M01 A3012 RMK A01 T00351011  RH  071%=      5-min Rain = 0
KSP2 180207Z 26002KT 04/M01 A3012 RMK A01 T00361011  RH  071%=      5-min Rain = 0
KSP2 180208Z 26002KT 04/M01 A3012 RMK A01 T00371010  RH  071%=      5-min Rain = 0
KSP2 180209Z 25002KT 04/M01 A3012 RMK A01 T00391010  RH  070%=      5-min Rain = 0
KSP2 180210Z 25002KT 04/M01 A3012 RMK A01 T00401010  RH  070%=      5-min Rain = 0
KSP2 180211Z 26002KT 04/M01 A3012 RMK A01 T00411010  RH  069%=      5-min Rain = 0
KSP2 180212Z 25002KT 04/M01 A3012 RMK A01 T00411010  RH  069%=      5-min Rain = 0
KSP2 180213Z 25002KT 04/M01 A3012 RMK A01 T00411010  RH  069%=      5-min Rain = 0
KSP2 180214Z 26002KT 04/M01 A3012 RMK A01 T00421009  RH  069%=      5-min Rain = 0
KSP2 180215Z 26002KT 04/M01 A3012 RMK A01 T00431008  RH  069%=      5-min Rain = 0
KSP2 180216Z 26002KT 04/M01 A3012 RMK A01 T00441008  RH  069%=      5-min Rain = 0
KSP2 180217Z 25002KT 04/M01 A3012 RMK A01 T00441008  RH  069%=      5-min Rain = 0
KSP2 180218Z 26002KT 04/M01 A3012 RMK A01 T00441007  RH  070%=      5-min Rain = 0
KSP2 180219Z 25002KT 04/M01 A3012 RMK A01 T00431006  RH  071%=      5-min Rain = 0
KSP2 180220Z 25002KT 04/M01 A3012 RMK A01 T00421007  RH  071%=      5-min Rain = 0
KSP2 180221Z 25002KT 04/M01 A3012 RMK A01 T00411006  RH  071%=      5-min Rain = 0
KSP2 180222Z 25002KT 04/M01 A3012 RMK A01 T00411006  RH  072%=      5-min Rain = 0
KSP2 180223Z 26002KT 04/M01 A3012 RMK A01 T00391006  RH  073%=      5-min Rain = 0
KSP2 180224Z 25002KT 04/M01 A3012 RMK A01 T00381005  RH  074%=      5-min Rain = 0
KSP2 180225Z 25002KT 04/M01 A3012 RMK A01 T00381005  RH  074%=      5-min Rain = 0
KSP2 180226Z 24002KT 04/M01 A3012 RMK A01 T00381006  RH  073%=      5-min Rain = 0
KSP2 180227Z 24002KT 04/M01 A3012 RMK A01 T00361007  RH  073%=      5-min Rain = 0
KSP2 180228Z 24002KT 04/M01 A3012 RMK A01 T00361007  RH  074%=      5-min Rain = 0
KSP2 180229Z 24003KT 03/M01 A3012 RMK A01 T00341008  RH  074%=      5-min Rain = 0
KSP2 180230Z 24003KT 03/M01 A3012 RMK A01 T00331008  RH  074%=      5-min Rain = 0
KSP2 180231Z 24003KT 03/M01 A3012 RMK A01 T00321009  RH  074%=      5-min Rain = 0
KSP2 180232Z 24003KT 03/M01 A3012 RMK A01 T00321009  RH  074%=      5-min Rain = 0
KSP2 180233Z 23003KT 03/M01 A3012 RMK A01 T00311010  RH  074%=      5-min Rain = 0
KSP2 180234Z 23003KT 03/M01 A3012 RMK A01 T00301011  RH  074%=      5-min Rain = 0
KSP2 180235Z 24003KT 03/M01 A3012 RMK A01 T00301012  RH  074%=      5-min Rain = 0
KSP2 180236Z 24004KT 03/M01 A3012 RMK A01 T00301013  RH  074%=      5-min Rain = 0
KSP2 180237Z 24004KT 03/M01 A3012 RMK A01 T00301012  RH  074%=      5-min Rain = 0
KSP2 180238Z 24003KT 03/M01 A3012 RMK A01 T00311012  RH  073%=      5-min Rain = 0
KSP2 180239Z 24003KT 03/M01 A3012 RMK A01 T00321012  RH  073%=      5-min Rain = 0
KSP2 180240Z 24003KT 03/M01 A3012 RMK A01 T00331011  RH  073%=      5-min Rain = 0
KSP2 180241Z 24002KT 03/M01 A3012 RMK A01 T00331011  RH  072%=      5-min Rain = 0
KSP2 180242Z 24002KT 03/M01 A3012 RMK A01 T00341011  RH  072%=      5-min Rain = 0
KSP2 180243Z 24002KT 03/M01 A3012 RMK A01 T00341012  RH  072%=      5-min Rain = 0
KSP2 180244Z 24002KT 03/M01 A3012 RMK A01 T00341011  RH  072%=      5-min Rain = 0
KSP2 180245Z 24002KT 04/M01 A3012 RMK A01 T00351012  RH  071%=      5-min Rain = 0
KSP2 180246Z 24002KT 03/M01 A3012 RMK A01 T00341014  RH  071%=      5-min Rain = 0
KSP2 180247Z 23002KT 03/M02 A3012 RMK A01 T00321015  RH  071%=      5-min Rain = 0
KSP2 180248Z 23002KT 03/M02 A3012 RMK A01 T00301015  RH  072%=      5-min Rain = 0
KSP2 180249Z 24003KT 03/M02 A3012 RMK A01 T00281016  RH  073%=      5-min Rain = 0
KSP2 180250Z 23002KT 03/M02 A3012 RMK A01 T00271015  RH  074%=      5-min Rain = 0
KSP2 180251Z 22002KT 03/M02 A3012 RMK A01 T00261015  RH  074%=      5-min Rain = 0
KSP2 180252Z 20003KT 03/M02 A3012 RMK A01 T00251016  RH  075%=      5-min Rain = 0
KSP2 180253Z 21003KT 02/M02 A3012 RMK A01 T00231017  RH  075%=      5-min Rain = 0
KSP2 180254Z 21003KT 02/M02 A3012 RMK A01 T00221017  RH  075%=      5-min Rain = 0
KSP2 180255Z 20003KT 02/M02 A3012 RMK A01 T00221016  RH  076%=      5-min Rain = 0
KSP2 180256Z 20002KT 02/M01 A3011 RMK A01 T00221014  RH  077%=      5-min Rain = 0
KSP2 180257Z 21002KT 02/M01 A3012 RMK A01 T00221012  RH  078%=      5-min Rain = 0
KSP2 180258Z 19002KT 02/M01 A3012 RMK A01 T00221012  RH  079%=      5-min Rain = 0
KSP2 180259Z 19002KT 02/M01 A3012 RMK A01 T00211012  RH  079%=      5-min Rain = 0
KSP2 180300Z 19002KT 02/M01 A3012 RMK A01 T00211012  RH  079%=      5-min Rain = 0
KSP2 180301Z 19003KT 02/M01 A3012 RMK A01 T00211012  RH  078%=      5-min Rain = 0
KSP2 180302Z 19002KT 02/M01 A3012 RMK A01 T00211013  RH  078%=      5-min Rain = 0
KSP2 180303Z 19003KT 02/M01 A3011 RMK A01 T00211013  RH  078%=      5-min Rain = 0
KSP2 180304Z 20002KT 02/M01 A3011 RMK A01 T00201014  RH  078%=      5-min Rain = 0
KSP2 180305Z 20002KT 02/M01 A3011 RMK A01 T00201014  RH  078%=      5-min Rain = 0
KSP2 180306Z 20002KT 02/M01 A3011 RMK A01 T00201013  RH  078%=      5-min Rain = 0
KSP2 180307Z 20002KT 02/M01 A3011 RMK A01 T00201013  RH  078%=      5-min Rain = 0
KSP2 180308Z 20002KT 02/M01 A3011 RMK A01 T00201014  RH  078%=      5-min Rain = 0
KSP2 180309Z 20002KT 02/M01 A3011 RMK A01 T00201014  RH  078%=      5-min Rain = 0
KSP2 180310Z 20002KT 02/M01 A3011 RMK A01 T00201014  RH  078%=      5-min Rain = 0
KSP2 180311Z 20002KT 02/M01 A3011 RMK A01 T00201014  RH  078%=      5-min Rain = 0
KSP2 180312Z 20002KT 02/M02 A3011 RMK A01 T00201015  RH  078%=      5-min Rain = 0
KSP2 180313Z 20003KT 02/M01 A3011 RMK A01 T00201014  RH  078%=      5-min Rain = 0
KSP2 180314Z 21003KT 02/M01 A3011 RMK A01 T00201014  RH  078%=      5-min Rain = 0
KSP2 180315Z 21003KT 02/M01 A3011 RMK A01 T00211013  RH  078%=      5-min Rain = 0
KSP2 180316Z 21003KT 02/M01 A3011 RMK A01 T00211013  RH  078%=      5-min Rain = 0
KSP2 180317Z 22002KT 02/M01 A3011 RMK A01 T00221013  RH  078%=      5-min Rain = 0
KSP2 180318Z 22002KT 02/M01 A3011 RMK A01 T00221014  RH  077%=      5-min Rain = 0
KSP2 180319Z 21002KT 02/M01 A3011 RMK A01 T00221013  RH  078%=      5-min Rain = 0
KSP2 180320Z 22002KT 02/M01 A3011 RMK A01 T00221013  RH  078%=      5-min Rain = 0
KSP2 180321Z 22002KT 02/M01 A3011 RMK A01 T00211012  RH  078%=      5-min Rain = 0
KSP2 180322Z 23002KT 02/M01 A3011 RMK A01 T00211012  RH  079%=      5-min Rain = 0
KSP2 180323Z 22002KT 02/M01 A3011 RMK A01 T00211012  RH  079%=      5-min Rain = 0
KSP2 180324Z 22002KT 02/M01 A3011 RMK A01 T00211013  RH  079%=      5-min Rain = 0
KSP2 180325Z 21002KT 02/M01 A3011 RMK A01 T00201014  RH  078%=      5-min Rain = 0
KSP2 180326Z 22001KT 02/M02 A3011 RMK A01 T00191015  RH  078%=      5-min Rain = 0
KSP2 180327Z 22002KT 02/M01 A3011 RMK A01 T00191014  RH  079%=      5-min Rain = 0
KSP2 180328Z 23002KT 02/M01 A3011 RMK A01 T00181013  RH  080%=      5-min Rain = 0
KSP2 180329Z 23002KT 02/M01 A3011 RMK A01 T00181013  RH  080%=      5-min Rain = 0
KSP2 180330Z 24002KT 02/M01 A3011 RMK A01 T00181013  RH  080%=      5-min Rain = 0
KSP2 180331Z 24002KT 02/M01 A3011 RMK A01 T00181014  RH  079%=      5-min Rain = 0
KSP2 180332Z 23003KT 02/M01 A3011 RMK A01 T00181014  RH  079%=      5-min Rain = 0
KSP2 180333Z 23003KT 02/M01 A3011 RMK A01 T00181014  RH  079%=      5-min Rain = 0
KSP2 180334Z 23003KT 02/M01 A3011 RMK A01 T00181014  RH  079%=      5-min Rain = 0
KSP2 180335Z 23003KT 02/M01 A3011 RMK A01 T00191013  RH  079%=      5-min Rain = 0
KSP2 180336Z 23003KT 02/M01 A3011 RMK A01 T00191013  RH  079%=      5-min Rain = 0
KSP2 180337Z 23003KT 02/M01 A3011 RMK A01 T00201014  RH  079%=      5-min Rain = 0
KSP2 180338Z 24003KT 02/M01 A3011 RMK A01 T00201014  RH  078%=      5-min Rain = 0
KSP2 180339Z 24003KT 02/M02 A3011 RMK A01 T00191015  RH  078%=      5-min Rain = 0
KSP2 180340Z 24003KT 02/M02 A3011 RMK A01 T00201016  RH  077%=      5-min Rain = 0
KSP2 180341Z 24002KT 02/M02 A3011 RMK A01 T00201016  RH  077%=      5-min Rain = 0
KSP2 180342Z 24002KT 02/M02 A3011 RMK A01 T00201017  RH  077%=      5-min Rain = 0
KSP2 180343Z 24002KT 02/M02 A3011 RMK A01 T00201016  RH  077%=      5-min Rain = 0
KSP2 180344Z 25001KT 02/M02 A3011 RMK A01 T00211016  RH  077%=      5-min Rain = 0
KSP2 180345Z 24002KT 02/M02 A3011 RMK A01 T00211016  RH  077%=      5-min Rain = 0
KSP2 180346Z 24001KT 02/M02 A3011 RMK A01 T00211015  RH  077%=      5-min Rain = 0
KSP2 180347Z 24001KT 02/M02 A3011 RMK A01 T00221015  RH  076%=      5-min Rain = 0
KSP2 180348Z 24002KT 02/M02 A3011 RMK A01 T00231015  RH  076%=      5-min Rain = 0
KSP2 180349Z 24002KT 02/M02 A3011 RMK A01 T00231015  RH  076%=      5-min Rain = 0
KSP2 180350Z 24002KT 02/M02 A3011 RMK A01 T00221017  RH  075%=      5-min Rain = 0
KSP2 180351Z 24002KT 02/M02 A3011 RMK A01 T00211018  RH  076%=      5-min Rain = 0
KSP2 180352Z 24002KT 02/M02 A3011 RMK A01 T00201018  RH  076%=      5-min Rain = 0
KSP2 180353Z 26002KT 02/M02 A3011 RMK A01 T00191018  RH  077%=      5-min Rain = 0
KSP2 180354Z 27002KT 02/M02 A3011 RMK A01 T00181018  RH  077%=      5-min Rain = 0
KSP2 180355Z 27002KT 02/M02 A3011 RMK A01 T00171017  RH  078%=      5-min Rain = 0
KSP2 180356Z 26002KT 02/M02 A3011 RMK A01 T00181016  RH  078%=      5-min Rain = 0
KSP2 180357Z 26002KT 02/M02 A3011 RMK A01 T00171016  RH  078%=      5-min Rain = 0
KSP2 180358Z 25002KT 02/M02 A3011 RMK A01 T00181016  RH  078%=      5-min Rain = 0
KSP2 180359Z 25002KT 02/M02 A3011 RMK A01 T00171016  RH  079%=      5-min Rain = 0
KSP2 180400Z 24002KT 02/M02 A3011 RMK A01 T00171016  RH  079%=      5-min Rain = 0
KSP2 180401Z 24002KT 02/M02 A3011 RMK A01 T00171016  RH  079%=      5-min Rain = 0
KSP2 180402Z 24002KT 02/M02 A3011 RMK A01 T00171016  RH  079%=      5-min Rain = 0
KSP2 180403Z 24002KT 02/M02 A3011 RMK A01 T00161018  RH  078%=      5-min Rain = 0
KSP2 180404Z 24001KT 02/M02 A301 RMK A01 T00161017  RH  079%=      5-min Rain = 0
KSP2 180405Z 25002KT 02/M02 A301 RMK A01 T00161017  RH  079%=      5-min Rain = 0
KSP2 180406Z 26002KT 02/M02 A301 RMK A01 T00161016  RH  079%=      5-min Rain = 0
KSP2 180407Z 26002KT 02/M02 A301 RMK A01 T00161015  RH  079%=      5-min Rain = 0
KSP2 180408Z 26002KT 02/M02 A301 RMK A01 T00171016  RH  079%=      5-min Rain = 0
KSP2 180409Z 27002KT 02/M02 A301 RMK A01 T00171016  RH  079%=      5-min Rain = 0
KSP2 180410Z 27002KT 02/M02 A301 RMK A01 T00171016  RH  079%=      5-min Rain = 0
KSP2 180411Z 27002KT 02/M02 A301 RMK A01 T00171015  RH  079%=      5-min Rain = 0
KSP2 180412Z 27002KT 02/M02 A301 RMK A01 T00171015  RH  079%=      5-min Rain = 0
KSP2 180413Z 27002KT 02/M02 A301 RMK A01 T00171015  RH  080%=      5-min Rain = 0
KSP2 180414Z 27002KT 02/M02 A301 RMK A01 T00161015  RH  080%=      5-min Rain = 0
KSP2 180415Z 27002KT 02/M02 A301 RMK A01 T00151017  RH  079%=      5-min Rain = 0
KSP2 180416Z 27002KT 01/M02 A301 RMK A01 T00131019  RH  079%=      5-min Rain = 0
KSP2 180417Z 27002KT 01/M02 A301 RMK A01 T00121020  RH  079%=      5-min Rain = 0
KSP2 180418Z 26003KT 01/M02 A301 RMK A01 T00101022  RH  079%=      5-min Rain = 0
KSP2 180419Z 25003KT 01/M02 A301 RMK A01 T00091023  RH  079%=      5-min Rain = 0
KSP2 180420Z 25003KT 01/M02 A301 RMK A01 T00091022  RH  080%=      5-min Rain = 0
KSP2 180421Z 24003KT 01/M02 A301 RMK A01 T00091021  RH  080%=      5-min Rain = 0
KSP2 180422Z 24003KT 01/M02 A301 RMK A01 T00071024  RH  080%=      5-min Rain = 0
KSP2 180423Z 24003KT 01/M02 A301 RMK A01 T00061024  RH  080%=      5-min Rain = 0
KSP2 180424Z 23003KT 01/M02 A301 RMK A01 T00051022  RH  082%=      5-min Rain = 0
KSP2 180425Z 22003KT 01/M02 A301 RMK A01 T00051020  RH  084%=      5-min Rain = 0
KSP2 180426Z 23002KT 01/M02 A301 RMK A01 T00051017  RH  085%=      5-min Rain = 0
KSP2 180427Z 23003KT 01/M02 A301 RMK A01 T00051016  RH  086%=      5-min Rain = 0
KSP2 180428Z 23003KT 01/M01 A301 RMK A01 T00061014  RH  086%=      5-min Rain = 0
KSP2 180429Z 23003KT 01/M01 A301 RMK A01 T00081012  RH  086%=      5-min Rain = 0
KSP2 180430Z 23003KT 01/M01 A3009 RMK A01 T00091013  RH  086%=      5-min Rain = 0
KSP2 180431Z 22003KT 01/M01 A3009 RMK A01 T00091013  RH  085%=      5-min Rain = 0
KSP2 180432Z 21003KT 01/M01 A3009 RMK A01 T00091014  RH  085%=      5-min Rain = 0
KSP2 180433Z 21002KT 01/M02 A3009 RMK A01 T00091015  RH  084%=      5-min Rain = 0
KSP2 180434Z 23003KT 01/M02 A3009 RMK A01 T00091017  RH  083%=      5-min Rain = 0
KSP2 180435Z 23003KT 01/M02 A3009 RMK A01 T00101016  RH  083%=      5-min Rain = 0
KSP2 180436Z 23003KT 01/M02 A3009 RMK A01 T00101017  RH  082%=      5-min Rain = 0
KSP2 180437Z 22003KT 01/M02 A3009 RMK A01 T00091018  RH  082%=      5-min Rain = 0
KSP2 180438Z 22003KT 01/M02 A3009 RMK A01 T00091020  RH  082%=      5-min Rain = 0
KSP2 180439Z 22003KT 01/M02 A3009 RMK A01 T00081020  RH  082%=      5-min Rain = 0
KSP2 180440Z 22002KT 01/M02 A3009 RMK A01 T00071020  RH  082%=      5-min Rain = 0
KSP2 180441Z 23001KT 01/M02 A3009 RMK A01 T00071020  RH  082%=      5-min Rain = 0
KSP2 180442Z 24001KT 01/M02 A3009 RMK A01 T00071019  RH  083%=      5-min Rain = 0
KSP2 180443Z 24002KT 01/M02 A3009 RMK A01 T00071018  RH  083%=      5-min Rain = 0
KSP2 180444Z 24002KT 01/M02 A3009 RMK A01 T00081018  RH  083%=      5-min Rain = 0
KSP2 180445Z 24002KT 01/M02 A3009 RMK A01 T00091017  RH  083%=      5-min Rain = 0
KSP2 180446Z 24003KT 01/M02 A3009 RMK A01 T00101017  RH  083%=      5-min Rain = 0
KSP2 180447Z 24003KT 01/M02 A3009 RMK A01 T00111016  RH  082%=      5-min Rain = 0
KSP2 180448Z 24003KT 01/M02 A3009 RMK A01 T00131016  RH  081%=      5-min Rain = 0
KSP2 180449Z 24003KT 01/M02 A3009 RMK A01 T00141017  RH  080%=      5-min Rain = 0
KSP2 180450Z 23004KT 01/M02 A3009 RMK A01 T00141018  RH  079%=      5-min Rain = 0
KSP2 180451Z 23004KT 02/M02 A3009 RMK A01 T00151018  RH  079%=      5-min Rain = 0
KSP2 180452Z 23004KT 02/M02 A3009 RMK A01 T00151018  RH  079%=      5-min Rain = 0
KSP2 180453Z 23004KT 02/M02 A3008 RMK A01 T00151018  RH  079%=      5-min Rain = 0
KSP2 180454Z 23003KT 01/M02 A3008 RMK A01 T00131019  RH  079%=      5-min Rain = 0
KSP2 180455Z 23004KT 01/M02 A3008 RMK A01 T00131019  RH  080%=      5-min Rain = 0
KSP2 180456Z 24004KT 01/M02 A3008 RMK A01 T00121019  RH  080%=      5-min Rain = 0
KSP2 180457Z 24004KT 01/M02 A3008 RMK A01 T00121019  RH  080%=      5-min Rain = 0
KSP2 180458Z 24004KT 01/M02 A3008 RMK A01 T00121020  RH  079%=      5-min Rain = 0
KSP2 180459Z 24004KT 01/M02 A3008 RMK A01 T00111021  RH  079%=      5-min Rain = 0
KSP2 180500Z 24004KT 01/M02 A3008 RMK A01 T00111020  RH  079%=      5-min Rain = 0
KSP2 180501Z 24004KT 01/M02 A3008 RMK A01 T00111020  RH  080%=      5-min Rain = 0
KSP2 180502Z 24004KT 01/M02 A3008 RMK A01 T00111020  RH  080%=      5-min Rain = 0
KSP2 180503Z 24003KT 01/M02 A3008 RMK A01 T00111020  RH  080%=      5-min Rain = 0
KSP2 180504Z 23003KT 01/M02 A3008 RMK A01 T00111020  RH  080%=      5-min Rain = 0
KSP2 180505Z 23003KT 01/M02 A3008 RMK A01 T00111020  RH  080%=      5-min Rain = 0
KSP2 180506Z 23003KT 01/M02 A3008 RMK A01 T00111020  RH  080%=      5-min Rain = 0
KSP2 180507Z 23003KT 01/M02 A3008 RMK A01 T00111020  RH  080%=      5-min Rain = 0
KSP2 180508Z 24003KT 01/M02 A3008 RMK A01 T00101021  RH  080%=      5-min Rain = 0
KSP2 180509Z 24003KT 01/M02 A3008 RMK A01 T00091021  RH  081%=      5-min Rain = 0
KSP2 180510Z 24003KT 01/M02 A3008 RMK A01 T00081020  RH  081%=      5-min Rain = 0
KSP2 180511Z 23003KT 01/M02 A3008 RMK A01 T00081020  RH  082%=      5-min Rain = 0
KSP2 180512Z 23003KT 01/M02 A3008 RMK A01 T00081020  RH  082%=      5-min Rain = 0
KSP2 180513Z 22003KT 01/M02 A3007 RMK A01 T00081020  RH  082%=      5-min Rain = 0
KSP2 180514Z 22004KT 01/M02 A3007 RMK A01 T00071021  RH  082%=      5-min Rain = 0
KSP2 180515Z 22004KT 01/M02 A3007 RMK A01 T00051021  RH  082%=      5-min Rain = 0
KSP2 180516Z 22004KT 00/M02 A3007 RMK A01 T00041021  RH  083%=      5-min Rain = 0
KSP2 180517Z 22004KT 00/M02 A3007 RMK A01 T00041021  RH  084%=      5-min Rain = 0
KSP2 180518Z 22004KT 00/M02 A3007 RMK A01 T00041020  RH  084%=      5-min Rain = 0
KSP2 180519Z 22004KT 00/M02 A3007 RMK A01 T00041020  RH  084%=      5-min Rain = 0
KSP2 180520Z 22004KT 00/M02 A3007 RMK A01 T00041020  RH  084%=      5-min Rain = 0
KSP2 180521Z 23004KT 00/M02 A3007 RMK A01 T00041019  RH  084%=      5-min Rain = 0
KSP2 180522Z 22004KT 00/M02 A3007 RMK A01 T00041019  RH  085%=      5-min Rain = 0
KSP2 180523Z 22004KT 01/M02 A3007 RMK A01 T00051019  RH  085%=      5-min Rain = 0
KSP2 180524Z 22004KT 01/M02 A3007 RMK A01 T00051019  RH  084%=      5-min Rain = 0
KSP2 180525Z 22004KT 01/M02 A3007 RMK A01 T00051019  RH  084%=      5-min Rain = 0
KSP2 180526Z 22003KT 01/M02 A3007 RMK A01 T00051018  RH  085%=      5-min Rain = 0
KSP2 180527Z 23003KT 01/M02 A3007 RMK A01 T00051018  RH  085%=      5-min Rain = 0
KSP2 180528Z 23003KT 01/M02 A3007 RMK A01 T00051018  RH  085%=      5-min Rain = 0
KSP2 180529Z 23003KT 01/M02 A3007 RMK A01 T00051017  RH  085%=      5-min Rain = 0
KSP2 180530Z 24003KT 01/M02 A3007 RMK A01 T00051016  RH  086%=      5-min Rain = 0
KSP2 180531Z 24003KT 01/M02 A3007 RMK A01 T00061016  RH  086%=      5-min Rain = 0
KSP2 180532Z 24003KT 01/M02 A3007 RMK A01 T00061016  RH  085%=      5-min Rain = 0
KSP2 180533Z 24002KT 01/M02 A3006 RMK A01 T00071016  RH  085%=      5-min Rain = 0
KSP2 180534Z 24003KT 01/M02 A3006 RMK A01 T00081015  RH  085%=      5-min Rain = 0
KSP2 180535Z 24003KT 01/M02 A3006 RMK A01 T00081016  RH  084%=      5-min Rain = 0
KSP2 180536Z 24002KT 01/M02 A3006 RMK A01 T00081016  RH  084%=      5-min Rain = 0
KSP2 180537Z 24002KT 01/M02 A3006 RMK A01 T00081016  RH  085%=      5-min Rain = 0
KSP2 180538Z 24003KT 01/M02 A3006 RMK A01 T00081015  RH  085%=      5-min Rain = 0
KSP2 180539Z 24003KT 01/M01 A3006 RMK A01 T00081014  RH  085%=      5-min Rain = 0
KSP2 180540Z 24003KT 01/M02 A3006 RMK A01 T00081015  RH  085%=      5-min Rain = 0
KSP2 180541Z 24004KT 01/M01 A3006 RMK A01 T00091014  RH  085%=      5-min Rain = 0
KSP2 180542Z 25003KT 01/M01 A3006 RMK A01 T00101014  RH  084%=      5-min Rain = 0
KSP2 180543Z 25004KT 01/M02 A3006 RMK A01 T00111015  RH  083%=      5-min Rain = 0
KSP2 180544Z 24003KT 01/M02 A3006 RMK A01 T00111015  RH  082%=      5-min Rain = 0
KSP2 180545Z 24003KT 01/M02 A3006 RMK A01 T00111016  RH  082%=      5-min Rain = 0
KSP2 180546Z 24004KT 01/M02 A3006 RMK A01 T00111016  RH  082%=      5-min Rain = 0
KSP2 180547Z 24004KT 01/M02 A3006 RMK A01 T00111015  RH  082%=      5-min Rain = 0
KSP2 180548Z 24003KT 01/M01 A3006 RMK A01 T00111014  RH  083%=      5-min Rain = 0
KSP2 180549Z 24003KT 01/M01 A3006 RMK A01 T00121014  RH  083%=      5-min Rain = 0
KSP2 180550Z 24004KT 01/M01 A3006 RMK A01 T00131013  RH  083%=      5-min Rain = 0
KSP2 180551Z 23005KT 01/M01 A3006 RMK A01 T00141013  RH  082%=      5-min Rain = 0
KSP2 180552Z 23006KT 01/M01 A3006 RMK A01 T00141014  RH  082%=      5-min Rain = 0
KSP2 180553Z 23006KT 01/M02 A3006 RMK A01 T00141015  RH  081%=      5-min Rain = 0
KSP2 180554Z 23006KT 02/M02 A3006 RMK A01 T00151015  RH  081%=      5-min Rain = 0
KSP2 180555Z 23006KT 02/M01 A3006 RMK A01 T00151014  RH  081%=      5-min Rain = 0
KSP2 180556Z 23007KT 02/M01 A3006 RMK A01 T00161012  RH  082%=      5-min Rain = 0
KSP2 180557Z 23007KT 02/M01 A3006 RMK A01 T00171011  RH  082%=      5-min Rain = 0
KSP2 180558Z 24006KT 02/M01 A3006 RMK A01 T00181010  RH  082%=      5-min Rain = 0
KSP2 180559Z 23006KT 02/M01 A3006 RMK A01 T00201008  RH  082%=      5-min Rain = 0

Page generated in 0.1438 seconds.